<?xml version="1.0" encoding="UTF-8" standalone="no" ?>
<gpx xmlns="http://www.topografix.com/GPX/1/1" xmlns:xsi="http://www.w3.org/2001/XMLSchema-instance" xsi:schemaLocation="http://www.topografix.com/GPX/1/1 http://www.topografix.com/GPX/1/1/gpx.xsd" version="1.1" creator="VisuGPX - https://www.visugpx.com">
  <metadata>
    <name>83-M-Mentone</name>
    <desc><![CDATA[83-M-Mentone : autour des Variès - Cagnosc   ]]></desc>
  </metadata>
  <trk>
    <name><![CDATA[2013-11-20-mentone]]></name>
    <trkseg>
      <trkpt lat="43.52522" lon="6.28238">
        <ele>320</ele>
        <time>2013-11-20T12:45:14Z</time>
      </trkpt>
      <trkpt lat="43.52524" lon="6.2825">
        <ele>300.5</ele>
        <time>2013-11-20T12:50:19Z</time>
      </trkpt>
      <trkpt lat="43.52524" lon="6.2825">
        <ele>300.2</ele>
        <time>2013-11-20T12:50:20Z</time>
      </trkpt>
      <trkpt lat="43.52532" lon="6.28253">
        <ele>286.7</ele>
        <time>2013-11-20T12:53:36Z</time>
      </trkpt>
      <trkpt lat="43.52541" lon="6.28254">
        <ele>278.5</ele>
        <time>2013-11-20T12:56:45Z</time>
      </trkpt>
      <trkpt lat="43.52552" lon="6.28261">
        <ele>278.2</ele>
        <time>2013-11-20T12:57:11Z</time>
      </trkpt>
      <trkpt lat="43.52554" lon="6.28271">
        <ele>279.1</ele>
        <time>2013-11-20T12:57:18Z</time>
      </trkpt>
      <trkpt lat="43.52559" lon="6.28282">
        <ele>278.6</ele>
        <time>2013-11-20T12:57:27Z</time>
      </trkpt>
      <trkpt lat="43.52567" lon="6.28287">
        <ele>278.5</ele>
        <time>2013-11-20T12:57:41Z</time>
      </trkpt>
      <trkpt lat="43.52574" lon="6.28282">
        <ele>278.7</ele>
        <time>2013-11-20T12:57:47Z</time>
      </trkpt>
      <trkpt lat="43.52575" lon="6.2828">
        <ele>278.7</ele>
        <time>2013-11-20T12:57:48Z</time>
      </trkpt>
      <trkpt lat="43.52587" lon="6.28269">
        <ele>279.8</ele>
        <time>2013-11-20T12:57:59Z</time>
      </trkpt>
      <trkpt lat="43.52594" lon="6.28261">
        <ele>279.5</ele>
        <time>2013-11-20T12:58:06Z</time>
      </trkpt>
      <trkpt lat="43.526" lon="6.28254">
        <ele>278.7</ele>
        <time>2013-11-20T12:58:12Z</time>
      </trkpt>
      <trkpt lat="43.52607" lon="6.28247">
        <ele>279.3</ele>
        <time>2013-11-20T12:58:18Z</time>
      </trkpt>
      <trkpt lat="43.52613" lon="6.28239">
        <ele>278.8</ele>
        <time>2013-11-20T12:58:25Z</time>
      </trkpt>
      <trkpt lat="43.5262" lon="6.28231">
        <ele>279.3</ele>
        <time>2013-11-20T12:58:32Z</time>
      </trkpt>
      <trkpt lat="43.52625" lon="6.28224">
        <ele>279.1</ele>
        <time>2013-11-20T12:58:38Z</time>
      </trkpt>
      <trkpt lat="43.52632" lon="6.28216">
        <ele>279.4</ele>
        <time>2013-11-20T12:58:45Z</time>
      </trkpt>
      <trkpt lat="43.52638" lon="6.28209">
        <ele>279.5</ele>
        <time>2013-11-20T12:58:52Z</time>
      </trkpt>
      <trkpt lat="43.52639" lon="6.28208">
        <ele>279.6</ele>
        <time>2013-11-20T12:58:53Z</time>
      </trkpt>
      <trkpt lat="43.5265" lon="6.28192">
        <ele>279.6</ele>
        <time>2013-11-20T12:59:07Z</time>
      </trkpt>
      <trkpt lat="43.52655" lon="6.28182">
        <ele>280.2</ele>
        <time>2013-11-20T12:59:15Z</time>
      </trkpt>
      <trkpt lat="43.52658" lon="6.2817">
        <ele>279.8</ele>
        <time>2013-11-20T12:59:22Z</time>
      </trkpt>
      <trkpt lat="43.52661" lon="6.28159">
        <ele>280.4</ele>
        <time>2013-11-20T12:59:30Z</time>
      </trkpt>
      <trkpt lat="43.52664" lon="6.28148">
        <ele>281.6</ele>
        <time>2013-11-20T12:59:37Z</time>
      </trkpt>
      <trkpt lat="43.52668" lon="6.28137">
        <ele>281.8</ele>
        <time>2013-11-20T12:59:45Z</time>
      </trkpt>
      <trkpt lat="43.52672" lon="6.28126">
        <ele>283.9</ele>
        <time>2013-11-20T12:59:55Z</time>
      </trkpt>
      <trkpt lat="43.52672" lon="6.28125">
        <ele>283.7</ele>
        <time>2013-11-20T12:59:56Z</time>
      </trkpt>
      <trkpt lat="43.5268" lon="6.28105">
        <ele>286.1</ele>
        <time>2013-11-20T13:00:16Z</time>
      </trkpt>
      <trkpt lat="43.52684" lon="6.28095">
        <ele>286.6</ele>
        <time>2013-11-20T13:00:25Z</time>
      </trkpt>
      <trkpt lat="43.52689" lon="6.28086">
        <ele>286.5</ele>
        <time>2013-11-20T13:00:42Z</time>
      </trkpt>
      <trkpt lat="43.52692" lon="6.28075">
        <ele>285.3</ele>
        <time>2013-11-20T13:00:50Z</time>
      </trkpt>
      <trkpt lat="43.52697" lon="6.28066">
        <ele>285.1</ele>
        <time>2013-11-20T13:00:57Z</time>
      </trkpt>
      <trkpt lat="43.52698" lon="6.28064">
        <ele>284.7</ele>
        <time>2013-11-20T13:00:58Z</time>
      </trkpt>
      <trkpt lat="43.52706" lon="6.28047">
        <ele>283</ele>
        <time>2013-11-20T13:01:12Z</time>
      </trkpt>
      <trkpt lat="43.52711" lon="6.28038">
        <ele>281.9</ele>
        <time>2013-11-20T13:01:22Z</time>
      </trkpt>
      <trkpt lat="43.52715" lon="6.28027">
        <ele>278.5</ele>
        <time>2013-11-20T13:01:30Z</time>
      </trkpt>
      <trkpt lat="43.52719" lon="6.28016">
        <ele>277.2</ele>
        <time>2013-11-20T13:01:39Z</time>
      </trkpt>
      <trkpt lat="43.52724" lon="6.28007">
        <ele>275.2</ele>
        <time>2013-11-20T13:01:48Z</time>
      </trkpt>
      <trkpt lat="43.5273" lon="6.28001">
        <ele>274.4</ele>
        <time>2013-11-20T13:01:56Z</time>
      </trkpt>
      <trkpt lat="43.52738" lon="6.27994">
        <ele>273.6</ele>
        <time>2013-11-20T13:02:02Z</time>
      </trkpt>
      <trkpt lat="43.52739" lon="6.27993">
        <ele>273.6</ele>
        <time>2013-11-20T13:02:03Z</time>
      </trkpt>
      <trkpt lat="43.52753" lon="6.27985">
        <ele>272.7</ele>
        <time>2013-11-20T13:02:12Z</time>
      </trkpt>
      <trkpt lat="43.52761" lon="6.27982">
        <ele>272.2</ele>
        <time>2013-11-20T13:02:17Z</time>
      </trkpt>
      <trkpt lat="43.52768" lon="6.27979">
        <ele>271.9</ele>
        <time>2013-11-20T13:02:22Z</time>
      </trkpt>
      <trkpt lat="43.52777" lon="6.27976">
        <ele>272.3</ele>
        <time>2013-11-20T13:02:28Z</time>
      </trkpt>
      <trkpt lat="43.52785" lon="6.27973">
        <ele>271.3</ele>
        <time>2013-11-20T13:02:34Z</time>
      </trkpt>
      <trkpt lat="43.52793" lon="6.27971">
        <ele>271.5</ele>
        <time>2013-11-20T13:02:40Z</time>
      </trkpt>
      <trkpt lat="43.52801" lon="6.27969">
        <ele>271.8</ele>
        <time>2013-11-20T13:02:46Z</time>
      </trkpt>
      <trkpt lat="43.52809" lon="6.27967">
        <ele>270.6</ele>
        <time>2013-11-20T13:02:52Z</time>
      </trkpt>
      <trkpt lat="43.52818" lon="6.27965">
        <ele>270.8</ele>
        <time>2013-11-20T13:02:58Z</time>
      </trkpt>
      <trkpt lat="43.52825" lon="6.27963">
        <ele>269.1</ele>
        <time>2013-11-20T13:03:04Z</time>
      </trkpt>
      <trkpt lat="43.52827" lon="6.27963">
        <ele>269.4</ele>
        <time>2013-11-20T13:03:05Z</time>
      </trkpt>
      <trkpt lat="43.52842" lon="6.27958">
        <ele>271</ele>
        <time>2013-11-20T13:03:17Z</time>
      </trkpt>
      <trkpt lat="43.52849" lon="6.27956">
        <ele>270</ele>
        <time>2013-11-20T13:03:23Z</time>
      </trkpt>
      <trkpt lat="43.52857" lon="6.27951">
        <ele>269.6</ele>
        <time>2013-11-20T13:03:31Z</time>
      </trkpt>
      <trkpt lat="43.52857" lon="6.27939">
        <ele>269.1</ele>
        <time>2013-11-20T13:03:38Z</time>
      </trkpt>
      <trkpt lat="43.52856" lon="6.27928">
        <ele>270.3</ele>
        <time>2013-11-20T13:03:44Z</time>
      </trkpt>
      <trkpt lat="43.52854" lon="6.27917">
        <ele>270.7</ele>
        <time>2013-11-20T13:03:51Z</time>
      </trkpt>
      <trkpt lat="43.5285" lon="6.27906">
        <ele>270.4</ele>
        <time>2013-11-20T13:03:59Z</time>
      </trkpt>
      <trkpt lat="43.52848" lon="6.27894">
        <ele>269.9</ele>
        <time>2013-11-20T13:04:08Z</time>
      </trkpt>
      <trkpt lat="43.52848" lon="6.27893">
        <ele>269.9</ele>
        <time>2013-11-20T13:04:09Z</time>
      </trkpt>
      <trkpt lat="43.52849" lon="6.27871">
        <ele>271</ele>
        <time>2013-11-20T13:04:22Z</time>
      </trkpt>
      <trkpt lat="43.52849" lon="6.27859">
        <ele>270</ele>
        <time>2013-11-20T13:04:30Z</time>
      </trkpt>
      <trkpt lat="43.52851" lon="6.27848">
        <ele>270.8</ele>
        <time>2013-11-20T13:04:36Z</time>
      </trkpt>
      <trkpt lat="43.52854" lon="6.27839">
        <ele>271.2</ele>
        <time>2013-11-20T13:04:42Z</time>
      </trkpt>
      <trkpt lat="43.52858" lon="6.27829">
        <ele>269.4</ele>
        <time>2013-11-20T13:04:48Z</time>
      </trkpt>
      <trkpt lat="43.52864" lon="6.2782">
        <ele>269.5</ele>
        <time>2013-11-20T13:04:53Z</time>
      </trkpt>
      <trkpt lat="43.52866" lon="6.27808">
        <ele>269.2</ele>
        <time>2013-11-20T13:05:05Z</time>
      </trkpt>
      <trkpt lat="43.52867" lon="6.27797">
        <ele>271.4</ele>
        <time>2013-11-20T13:05:29Z</time>
      </trkpt>
      <trkpt lat="43.52867" lon="6.27796">
        <ele>271.7</ele>
        <time>2013-11-20T13:05:30Z</time>
      </trkpt>
      <trkpt lat="43.52873" lon="6.27775">
        <ele>271.9</ele>
        <time>2013-11-20T13:05:45Z</time>
      </trkpt>
      <trkpt lat="43.52876" lon="6.27765">
        <ele>272</ele>
        <time>2013-11-20T13:05:53Z</time>
      </trkpt>
      <trkpt lat="43.52879" lon="6.27755">
        <ele>272.5</ele>
        <time>2013-11-20T13:06:00Z</time>
      </trkpt>
      <trkpt lat="43.52882" lon="6.27746">
        <ele>271.6</ele>
        <time>2013-11-20T13:06:05Z</time>
      </trkpt>
      <trkpt lat="43.52885" lon="6.27735">
        <ele>271.3</ele>
        <time>2013-11-20T13:06:11Z</time>
      </trkpt>
      <trkpt lat="43.52888" lon="6.27723">
        <ele>271.4</ele>
        <time>2013-11-20T13:06:17Z</time>
      </trkpt>
      <trkpt lat="43.5289" lon="6.27711">
        <ele>271.4</ele>
        <time>2013-11-20T13:06:25Z</time>
      </trkpt>
      <trkpt lat="43.52893" lon="6.27701">
        <ele>272.9</ele>
        <time>2013-11-20T13:06:33Z</time>
      </trkpt>
      <trkpt lat="43.52893" lon="6.277">
        <ele>273.2</ele>
        <time>2013-11-20T13:06:34Z</time>
      </trkpt>
      <trkpt lat="43.529" lon="6.27679">
        <ele>272.9</ele>
        <time>2013-11-20T13:06:46Z</time>
      </trkpt>
      <trkpt lat="43.52906" lon="6.27671">
        <ele>271.7</ele>
        <time>2013-11-20T13:06:55Z</time>
      </trkpt>
      <trkpt lat="43.52913" lon="6.27664">
        <ele>271.2</ele>
        <time>2013-11-20T13:07:05Z</time>
      </trkpt>
      <trkpt lat="43.52918" lon="6.27654">
        <ele>270.1</ele>
        <time>2013-11-20T13:07:11Z</time>
      </trkpt>
      <trkpt lat="43.52922" lon="6.27644">
        <ele>269.8</ele>
        <time>2013-11-20T13:07:18Z</time>
      </trkpt>
      <trkpt lat="43.52926" lon="6.27635">
        <ele>271.4</ele>
        <time>2013-11-20T13:07:25Z</time>
      </trkpt>
      <trkpt lat="43.52933" lon="6.27627">
        <ele>270</ele>
        <time>2013-11-20T13:07:33Z</time>
      </trkpt>
      <trkpt lat="43.52938" lon="6.27617">
        <ele>270.9</ele>
        <time>2013-11-20T13:07:41Z</time>
      </trkpt>
      <trkpt lat="43.52939" lon="6.27616">
        <ele>270.9</ele>
        <time>2013-11-20T13:07:42Z</time>
      </trkpt>
      <trkpt lat="43.52949" lon="6.27599">
        <ele>269.6</ele>
        <time>2013-11-20T13:07:52Z</time>
      </trkpt>
      <trkpt lat="43.52955" lon="6.27591">
        <ele>268.7</ele>
        <time>2013-11-20T13:08:00Z</time>
      </trkpt>
      <trkpt lat="43.5296" lon="6.27583">
        <ele>269.3</ele>
        <time>2013-11-20T13:08:07Z</time>
      </trkpt>
      <trkpt lat="43.52966" lon="6.27577">
        <ele>269.4</ele>
        <time>2013-11-20T13:08:11Z</time>
      </trkpt>
      <trkpt lat="43.52972" lon="6.27569">
        <ele>269.5</ele>
        <time>2013-11-20T13:08:18Z</time>
      </trkpt>
      <trkpt lat="43.52978" lon="6.27561">
        <ele>268.9</ele>
        <time>2013-11-20T13:08:25Z</time>
      </trkpt>
      <trkpt lat="43.52982" lon="6.27551">
        <ele>267.8</ele>
        <time>2013-11-20T13:08:32Z</time>
      </trkpt>
      <trkpt lat="43.52986" lon="6.27541">
        <ele>268.6</ele>
        <time>2013-11-20T13:08:42Z</time>
      </trkpt>
      <trkpt lat="43.52987" lon="6.27541">
        <ele>268.8</ele>
        <time>2013-11-20T13:08:43Z</time>
      </trkpt>
      <trkpt lat="43.52999" lon="6.27527">
        <ele>267.5</ele>
        <time>2013-11-20T13:08:57Z</time>
      </trkpt>
      <trkpt lat="43.53006" lon="6.2752">
        <ele>266.9</ele>
        <time>2013-11-20T13:09:06Z</time>
      </trkpt>
      <trkpt lat="43.53014" lon="6.27516">
        <ele>265.9</ele>
        <time>2013-11-20T13:09:16Z</time>
      </trkpt>
      <trkpt lat="43.53021" lon="6.27509">
        <ele>265</ele>
        <time>2013-11-20T13:09:24Z</time>
      </trkpt>
      <trkpt lat="43.53027" lon="6.27501">
        <ele>263.9</ele>
        <time>2013-11-20T13:09:31Z</time>
      </trkpt>
      <trkpt lat="43.53033" lon="6.27493">
        <ele>264.2</ele>
        <time>2013-11-20T13:09:36Z</time>
      </trkpt>
      <trkpt lat="43.53039" lon="6.27485">
        <ele>265.1</ele>
        <time>2013-11-20T13:09:45Z</time>
      </trkpt>
      <trkpt lat="43.5304" lon="6.27483">
        <ele>264.8</ele>
        <time>2013-11-20T13:09:46Z</time>
      </trkpt>
      <trkpt lat="43.53048" lon="6.27465">
        <ele>264.7</ele>
        <time>2013-11-20T13:09:55Z</time>
      </trkpt>
      <trkpt lat="43.53053" lon="6.27457">
        <ele>263.5</ele>
        <time>2013-11-20T13:10:00Z</time>
      </trkpt>
      <trkpt lat="43.5306" lon="6.27449">
        <ele>263.9</ele>
        <time>2013-11-20T13:10:05Z</time>
      </trkpt>
      <trkpt lat="43.53067" lon="6.27442">
        <ele>263.3</ele>
        <time>2013-11-20T13:10:11Z</time>
      </trkpt>
      <trkpt lat="43.53073" lon="6.27434">
        <ele>263.4</ele>
        <time>2013-11-20T13:10:19Z</time>
      </trkpt>
      <trkpt lat="43.53078" lon="6.27425">
        <ele>262.7</ele>
        <time>2013-11-20T13:10:27Z</time>
      </trkpt>
      <trkpt lat="43.53083" lon="6.27416">
        <ele>262</ele>
        <time>2013-11-20T13:10:34Z</time>
      </trkpt>
      <trkpt lat="43.53087" lon="6.27405">
        <ele>261.5</ele>
        <time>2013-11-20T13:10:42Z</time>
      </trkpt>
      <trkpt lat="43.53091" lon="6.27396">
        <ele>259.6</ele>
        <time>2013-11-20T13:10:50Z</time>
      </trkpt>
      <trkpt lat="43.53092" lon="6.27395">
        <ele>259.5</ele>
        <time>2013-11-20T13:10:51Z</time>
      </trkpt>
      <trkpt lat="43.53101" lon="6.27378">
        <ele>259.4</ele>
        <time>2013-11-20T13:11:02Z</time>
      </trkpt>
      <trkpt lat="43.53107" lon="6.27369">
        <ele>258.7</ele>
        <time>2013-11-20T13:11:12Z</time>
      </trkpt>
      <trkpt lat="43.53111" lon="6.2736">
        <ele>258.7</ele>
        <time>2013-11-20T13:11:18Z</time>
      </trkpt>
      <trkpt lat="43.53117" lon="6.27354">
        <ele>257.9</ele>
        <time>2013-11-20T13:11:22Z</time>
      </trkpt>
      <trkpt lat="43.53123" lon="6.27345">
        <ele>257.3</ele>
        <time>2013-11-20T13:11:28Z</time>
      </trkpt>
      <trkpt lat="43.53128" lon="6.27336">
        <ele>257.1</ele>
        <time>2013-11-20T13:11:34Z</time>
      </trkpt>
      <trkpt lat="43.53132" lon="6.27327">
        <ele>257.5</ele>
        <time>2013-11-20T13:11:39Z</time>
      </trkpt>
      <trkpt lat="43.53136" lon="6.27318">
        <ele>257</ele>
        <time>2013-11-20T13:11:44Z</time>
      </trkpt>
      <trkpt lat="43.5314" lon="6.27307">
        <ele>256.2</ele>
        <time>2013-11-20T13:11:52Z</time>
      </trkpt>
      <trkpt lat="43.5314" lon="6.27306">
        <ele>256</ele>
        <time>2013-11-20T13:11:53Z</time>
      </trkpt>
      <trkpt lat="43.53145" lon="6.27285">
        <ele>254.6</ele>
        <time>2013-11-20T13:12:12Z</time>
      </trkpt>
      <trkpt lat="43.53147" lon="6.27273">
        <ele>252.8</ele>
        <time>2013-11-20T13:12:22Z</time>
      </trkpt>
      <trkpt lat="43.53152" lon="6.27263">
        <ele>252.9</ele>
        <time>2013-11-20T13:12:28Z</time>
      </trkpt>
      <trkpt lat="43.53151" lon="6.27252">
        <ele>252.8</ele>
        <time>2013-11-20T13:12:37Z</time>
      </trkpt>
      <trkpt lat="43.53155" lon="6.27241">
        <ele>251.8</ele>
        <time>2013-11-20T13:12:43Z</time>
      </trkpt>
      <trkpt lat="43.53157" lon="6.2723">
        <ele>251.6</ele>
        <time>2013-11-20T13:12:52Z</time>
      </trkpt>
      <trkpt lat="43.5316" lon="6.27219">
        <ele>251.4</ele>
        <time>2013-11-20T13:13:01Z</time>
      </trkpt>
      <trkpt lat="43.5316" lon="6.27217">
        <ele>251.6</ele>
        <time>2013-11-20T13:13:02Z</time>
      </trkpt>
      <trkpt lat="43.53162" lon="6.27196">
        <ele>251.6</ele>
        <time>2013-11-20T13:13:16Z</time>
      </trkpt>
      <trkpt lat="43.53165" lon="6.27186">
        <ele>250.9</ele>
        <time>2013-11-20T13:13:21Z</time>
      </trkpt>
      <trkpt lat="43.53166" lon="6.27175">
        <ele>251.2</ele>
        <time>2013-11-20T13:13:27Z</time>
      </trkpt>
      <trkpt lat="43.53168" lon="6.27164">
        <ele>251</ele>
        <time>2013-11-20T13:13:32Z</time>
      </trkpt>
      <trkpt lat="43.53169" lon="6.27153">
        <ele>251.1</ele>
        <time>2013-11-20T13:13:37Z</time>
      </trkpt>
      <trkpt lat="43.5317" lon="6.27141">
        <ele>251.3</ele>
        <time>2013-11-20T13:13:42Z</time>
      </trkpt>
      <trkpt lat="43.53173" lon="6.27131">
        <ele>250.4</ele>
        <time>2013-11-20T13:13:51Z</time>
      </trkpt>
      <trkpt lat="43.53175" lon="6.2712">
        <ele>250.2</ele>
        <time>2013-11-20T13:13:58Z</time>
      </trkpt>
      <trkpt lat="43.53176" lon="6.27108">
        <ele>250.5</ele>
        <time>2013-11-20T13:14:06Z</time>
      </trkpt>
      <trkpt lat="43.53176" lon="6.27107">
        <ele>249.8</ele>
        <time>2013-11-20T13:14:07Z</time>
      </trkpt>
      <trkpt lat="43.53177" lon="6.27084">
        <ele>247</ele>
        <time>2013-11-20T13:14:23Z</time>
      </trkpt>
      <trkpt lat="43.53177" lon="6.27072">
        <ele>247.3</ele>
        <time>2013-11-20T13:14:30Z</time>
      </trkpt>
      <trkpt lat="43.53177" lon="6.2706">
        <ele>246.8</ele>
        <time>2013-11-20T13:14:35Z</time>
      </trkpt>
      <trkpt lat="43.53176" lon="6.27048">
        <ele>246.2</ele>
        <time>2013-11-20T13:14:42Z</time>
      </trkpt>
      <trkpt lat="43.53172" lon="6.27037">
        <ele>245.4</ele>
        <time>2013-11-20T13:14:49Z</time>
      </trkpt>
      <trkpt lat="43.53171" lon="6.27026">
        <ele>244.4</ele>
        <time>2013-11-20T13:14:56Z</time>
      </trkpt>
      <trkpt lat="43.53169" lon="6.27015">
        <ele>243.5</ele>
        <time>2013-11-20T13:15:03Z</time>
      </trkpt>
      <trkpt lat="43.53169" lon="6.27003">
        <ele>242.3</ele>
        <time>2013-11-20T13:15:10Z</time>
      </trkpt>
      <trkpt lat="43.53169" lon="6.27002">
        <ele>241.7</ele>
        <time>2013-11-20T13:15:11Z</time>
      </trkpt>
      <trkpt lat="43.53168" lon="6.26981">
        <ele>241.4</ele>
        <time>2013-11-20T13:15:24Z</time>
      </trkpt>
      <trkpt lat="43.53167" lon="6.2697">
        <ele>240.2</ele>
        <time>2013-11-20T13:15:31Z</time>
      </trkpt>
      <trkpt lat="43.53167" lon="6.26959">
        <ele>240.1</ele>
        <time>2013-11-20T13:15:36Z</time>
      </trkpt>
      <trkpt lat="43.53167" lon="6.26948">
        <ele>238.2</ele>
        <time>2013-11-20T13:15:42Z</time>
      </trkpt>
      <trkpt lat="43.53166" lon="6.26937">
        <ele>238.6</ele>
        <time>2013-11-20T13:15:48Z</time>
      </trkpt>
      <trkpt lat="43.53161" lon="6.26927">
        <ele>236.3</ele>
        <time>2013-11-20T13:15:54Z</time>
      </trkpt>
      <trkpt lat="43.5316" lon="6.26915">
        <ele>236.2</ele>
        <time>2013-11-20T13:16:04Z</time>
      </trkpt>
      <trkpt lat="43.53158" lon="6.26903">
        <ele>236.5</ele>
        <time>2013-11-20T13:16:17Z</time>
      </trkpt>
      <trkpt lat="43.53157" lon="6.26902">
        <ele>236.6</ele>
        <time>2013-11-20T13:16:18Z</time>
      </trkpt>
      <trkpt lat="43.53151" lon="6.26882">
        <ele>236.2</ele>
        <time>2013-11-20T13:16:31Z</time>
      </trkpt>
      <trkpt lat="43.5315" lon="6.26871">
        <ele>236.3</ele>
        <time>2013-11-20T13:16:37Z</time>
      </trkpt>
      <trkpt lat="43.53151" lon="6.2686">
        <ele>237.7</ele>
        <time>2013-11-20T13:16:49Z</time>
      </trkpt>
      <trkpt lat="43.53153" lon="6.26849">
        <ele>238.1</ele>
        <time>2013-11-20T13:16:56Z</time>
      </trkpt>
      <trkpt lat="43.53154" lon="6.26837">
        <ele>237.6</ele>
        <time>2013-11-20T13:17:02Z</time>
      </trkpt>
      <trkpt lat="43.53157" lon="6.26826">
        <ele>236.7</ele>
        <time>2013-11-20T13:17:09Z</time>
      </trkpt>
      <trkpt lat="43.5316" lon="6.26816">
        <ele>236.8</ele>
        <time>2013-11-20T13:17:14Z</time>
      </trkpt>
      <trkpt lat="43.53165" lon="6.26807">
        <ele>235.4</ele>
        <time>2013-11-20T13:17:21Z</time>
      </trkpt>
      <trkpt lat="43.53165" lon="6.26806">
        <ele>234.8</ele>
        <time>2013-11-20T13:17:22Z</time>
      </trkpt>
      <trkpt lat="43.53174" lon="6.26787">
        <ele>233.9</ele>
        <time>2013-11-20T13:17:33Z</time>
      </trkpt>
      <trkpt lat="43.53176" lon="6.26775">
        <ele>233.7</ele>
        <time>2013-11-20T13:17:40Z</time>
      </trkpt>
      <trkpt lat="43.53176" lon="6.26763">
        <ele>233.9</ele>
        <time>2013-11-20T13:17:48Z</time>
      </trkpt>
      <trkpt lat="43.53176" lon="6.26751">
        <ele>233.3</ele>
        <time>2013-11-20T13:18:02Z</time>
      </trkpt>
      <trkpt lat="43.53176" lon="6.2674">
        <ele>232.2</ele>
        <time>2013-11-20T13:18:10Z</time>
      </trkpt>
      <trkpt lat="43.53175" lon="6.26728">
        <ele>231.9</ele>
        <time>2013-11-20T13:18:18Z</time>
      </trkpt>
      <trkpt lat="43.53175" lon="6.26717">
        <ele>231.1</ele>
        <time>2013-11-20T13:18:25Z</time>
      </trkpt>
      <trkpt lat="43.53175" lon="6.26714">
        <ele>231.2</ele>
        <time>2013-11-20T13:18:26Z</time>
      </trkpt>
      <trkpt lat="43.53169" lon="6.26695">
        <ele>229.8</ele>
        <time>2013-11-20T13:18:38Z</time>
      </trkpt>
      <trkpt lat="43.53164" lon="6.26686">
        <ele>229.9</ele>
        <time>2013-11-20T13:18:45Z</time>
      </trkpt>
      <trkpt lat="43.53158" lon="6.26677">
        <ele>229.5</ele>
        <time>2013-11-20T13:18:52Z</time>
      </trkpt>
      <trkpt lat="43.5315" lon="6.26671">
        <ele>228.8</ele>
        <time>2013-11-20T13:19:02Z</time>
      </trkpt>
      <trkpt lat="43.53144" lon="6.26663">
        <ele>229.5</ele>
        <time>2013-11-20T13:19:08Z</time>
      </trkpt>
      <trkpt lat="43.53137" lon="6.26656">
        <ele>228.6</ele>
        <time>2013-11-20T13:19:15Z</time>
      </trkpt>
      <trkpt lat="43.5313" lon="6.26649">
        <ele>228.1</ele>
        <time>2013-11-20T13:19:23Z</time>
      </trkpt>
      <trkpt lat="43.53125" lon="6.2664">
        <ele>228.8</ele>
        <time>2013-11-20T13:19:30Z</time>
      </trkpt>
      <trkpt lat="43.53124" lon="6.26638">
        <ele>228.8</ele>
        <time>2013-11-20T13:19:31Z</time>
      </trkpt>
      <trkpt lat="43.5312" lon="6.26619">
        <ele>229.4</ele>
        <time>2013-11-20T13:19:42Z</time>
      </trkpt>
      <trkpt lat="43.53118" lon="6.26607">
        <ele>228</ele>
        <time>2013-11-20T13:19:48Z</time>
      </trkpt>
      <trkpt lat="43.53115" lon="6.26597">
        <ele>227.4</ele>
        <time>2013-11-20T13:19:54Z</time>
      </trkpt>
      <trkpt lat="43.53114" lon="6.26586">
        <ele>228.3</ele>
        <time>2013-11-20T13:20:00Z</time>
      </trkpt>
      <trkpt lat="43.53112" lon="6.26575">
        <ele>229</ele>
        <time>2013-11-20T13:20:06Z</time>
      </trkpt>
      <trkpt lat="43.53111" lon="6.26564">
        <ele>229.1</ele>
        <time>2013-11-20T13:20:13Z</time>
      </trkpt>
      <trkpt lat="43.5311" lon="6.26552">
        <ele>228.8</ele>
        <time>2013-11-20T13:20:21Z</time>
      </trkpt>
      <trkpt lat="43.53106" lon="6.26542">
        <ele>229</ele>
        <time>2013-11-20T13:20:29Z</time>
      </trkpt>
      <trkpt lat="43.53107" lon="6.26531">
        <ele>229.5</ele>
        <time>2013-11-20T13:20:35Z</time>
      </trkpt>
      <trkpt lat="43.53108" lon="6.26529">
        <ele>229.6</ele>
        <time>2013-11-20T13:20:36Z</time>
      </trkpt>
      <trkpt lat="43.53117" lon="6.26514">
        <ele>229.9</ele>
        <time>2013-11-20T13:20:46Z</time>
      </trkpt>
      <trkpt lat="43.53123" lon="6.26506">
        <ele>231.3</ele>
        <time>2013-11-20T13:20:53Z</time>
      </trkpt>
      <trkpt lat="43.53129" lon="6.26497">
        <ele>231.3</ele>
        <time>2013-11-20T13:21:03Z</time>
      </trkpt>
      <trkpt lat="43.53135" lon="6.26489">
        <ele>231.3</ele>
        <time>2013-11-20T13:21:11Z</time>
      </trkpt>
      <trkpt lat="43.53143" lon="6.26482">
        <ele>231.8</ele>
        <time>2013-11-20T13:21:18Z</time>
      </trkpt>
      <trkpt lat="43.53149" lon="6.26474">
        <ele>230.8</ele>
        <time>2013-11-20T13:21:25Z</time>
      </trkpt>
      <trkpt lat="43.53156" lon="6.26465">
        <ele>230.8</ele>
        <time>2013-11-20T13:21:32Z</time>
      </trkpt>
      <trkpt lat="43.53161" lon="6.26457">
        <ele>230.3</ele>
        <time>2013-11-20T13:21:38Z</time>
      </trkpt>
      <trkpt lat="43.53162" lon="6.26456">
        <ele>230.3</ele>
        <time>2013-11-20T13:21:39Z</time>
      </trkpt>
      <trkpt lat="43.53171" lon="6.2644">
        <ele>230.7</ele>
        <time>2013-11-20T13:21:51Z</time>
      </trkpt>
      <trkpt lat="43.53175" lon="6.2643">
        <ele>230.3</ele>
        <time>2013-11-20T13:21:57Z</time>
      </trkpt>
      <trkpt lat="43.53179" lon="6.2642">
        <ele>229.3</ele>
        <time>2013-11-20T13:22:03Z</time>
      </trkpt>
      <trkpt lat="43.53183" lon="6.26409">
        <ele>230.4</ele>
        <time>2013-11-20T13:22:10Z</time>
      </trkpt>
      <trkpt lat="43.53185" lon="6.26398">
        <ele>231.5</ele>
        <time>2013-11-20T13:22:18Z</time>
      </trkpt>
      <trkpt lat="43.53187" lon="6.26386">
        <ele>230.9</ele>
        <time>2013-11-20T13:22:27Z</time>
      </trkpt>
      <trkpt lat="43.53188" lon="6.26374">
        <ele>231.1</ele>
        <time>2013-11-20T13:22:36Z</time>
      </trkpt>
      <trkpt lat="43.53187" lon="6.26362">
        <ele>230.9</ele>
        <time>2013-11-20T13:22:45Z</time>
      </trkpt>
      <trkpt lat="43.53187" lon="6.2636">
        <ele>230.6</ele>
        <time>2013-11-20T13:22:46Z</time>
      </trkpt>
      <trkpt lat="43.53188" lon="6.26338">
        <ele>229.6</ele>
        <time>2013-11-20T13:23:03Z</time>
      </trkpt>
      <trkpt lat="43.53188" lon="6.26326">
        <ele>231</ele>
        <time>2013-11-20T13:23:09Z</time>
      </trkpt>
      <trkpt lat="43.53186" lon="6.26315">
        <ele>230.9</ele>
        <time>2013-11-20T13:23:14Z</time>
      </trkpt>
      <trkpt lat="43.53186" lon="6.26305">
        <ele>231.3</ele>
        <time>2013-11-20T13:23:20Z</time>
      </trkpt>
      <trkpt lat="43.53186" lon="6.26293">
        <ele>231.7</ele>
        <time>2013-11-20T13:23:26Z</time>
      </trkpt>
      <trkpt lat="43.53185" lon="6.26282">
        <ele>232.2</ele>
        <time>2013-11-20T13:23:32Z</time>
      </trkpt>
      <trkpt lat="43.53186" lon="6.2627">
        <ele>232.2</ele>
        <time>2013-11-20T13:23:39Z</time>
      </trkpt>
      <trkpt lat="43.53186" lon="6.26259">
        <ele>231.7</ele>
        <time>2013-11-20T13:23:46Z</time>
      </trkpt>
      <trkpt lat="43.53186" lon="6.26248">
        <ele>232</ele>
        <time>2013-11-20T13:23:53Z</time>
      </trkpt>
      <trkpt lat="43.53186" lon="6.26246">
        <ele>232.1</ele>
        <time>2013-11-20T13:23:54Z</time>
      </trkpt>
      <trkpt lat="43.53185" lon="6.26224">
        <ele>231.5</ele>
        <time>2013-11-20T13:24:06Z</time>
      </trkpt>
      <trkpt lat="43.53185" lon="6.26212">
        <ele>231.8</ele>
        <time>2013-11-20T13:24:14Z</time>
      </trkpt>
      <trkpt lat="43.53184" lon="6.26201">
        <ele>230.8</ele>
        <time>2013-11-20T13:24:20Z</time>
      </trkpt>
      <trkpt lat="43.53184" lon="6.26188">
        <ele>231.6</ele>
        <time>2013-11-20T13:24:26Z</time>
      </trkpt>
      <trkpt lat="43.53184" lon="6.26177">
        <ele>231.4</ele>
        <time>2013-11-20T13:24:34Z</time>
      </trkpt>
      <trkpt lat="43.53184" lon="6.26165">
        <ele>231.6</ele>
        <time>2013-11-20T13:24:40Z</time>
      </trkpt>
      <trkpt lat="43.53183" lon="6.26154">
        <ele>231.3</ele>
        <time>2013-11-20T13:24:45Z</time>
      </trkpt>
      <trkpt lat="43.53183" lon="6.26143">
        <ele>230.3</ele>
        <time>2013-11-20T13:24:51Z</time>
      </trkpt>
      <trkpt lat="43.53182" lon="6.26132">
        <ele>231.1</ele>
        <time>2013-11-20T13:24:59Z</time>
      </trkpt>
      <trkpt lat="43.53182" lon="6.2613">
        <ele>230.6</ele>
        <time>2013-11-20T13:25:00Z</time>
      </trkpt>
      <trkpt lat="43.53181" lon="6.26108">
        <ele>231.2</ele>
        <time>2013-11-20T13:25:14Z</time>
      </trkpt>
      <trkpt lat="43.53182" lon="6.26097">
        <ele>230.5</ele>
        <time>2013-11-20T13:25:19Z</time>
      </trkpt>
      <trkpt lat="43.53182" lon="6.26084">
        <ele>229.8</ele>
        <time>2013-11-20T13:25:25Z</time>
      </trkpt>
      <trkpt lat="43.53181" lon="6.26073">
        <ele>230.7</ele>
        <time>2013-11-20T13:25:31Z</time>
      </trkpt>
      <trkpt lat="43.5318" lon="6.26063">
        <ele>230.1</ele>
        <time>2013-11-20T13:25:37Z</time>
      </trkpt>
      <trkpt lat="43.5318" lon="6.26051">
        <ele>230.4</ele>
        <time>2013-11-20T13:25:43Z</time>
      </trkpt>
      <trkpt lat="43.5318" lon="6.26039">
        <ele>230.2</ele>
        <time>2013-11-20T13:25:49Z</time>
      </trkpt>
      <trkpt lat="43.5318" lon="6.26029">
        <ele>231.2</ele>
        <time>2013-11-20T13:25:55Z</time>
      </trkpt>
      <trkpt lat="43.53181" lon="6.26017">
        <ele>231.2</ele>
        <time>2013-11-20T13:26:01Z</time>
      </trkpt>
      <trkpt lat="43.53182" lon="6.26015">
        <ele>231</ele>
        <time>2013-11-20T13:26:02Z</time>
      </trkpt>
      <trkpt lat="43.53181" lon="6.25995">
        <ele>230.6</ele>
        <time>2013-11-20T13:26:12Z</time>
      </trkpt>
      <trkpt lat="43.5318" lon="6.25984">
        <ele>231.3</ele>
        <time>2013-11-20T13:26:18Z</time>
      </trkpt>
      <trkpt lat="43.53179" lon="6.25972">
        <ele>229.8</ele>
        <time>2013-11-20T13:26:25Z</time>
      </trkpt>
      <trkpt lat="43.53179" lon="6.25962">
        <ele>231.4</ele>
        <time>2013-11-20T13:26:30Z</time>
      </trkpt>
      <trkpt lat="43.53178" lon="6.2595">
        <ele>230.4</ele>
        <time>2013-11-20T13:26:36Z</time>
      </trkpt>
      <trkpt lat="43.53176" lon="6.25939">
        <ele>230.9</ele>
        <time>2013-11-20T13:26:43Z</time>
      </trkpt>
      <trkpt lat="43.53175" lon="6.25928">
        <ele>230.4</ele>
        <time>2013-11-20T13:26:48Z</time>
      </trkpt>
      <trkpt lat="43.53173" lon="6.25917">
        <ele>230.4</ele>
        <time>2013-11-20T13:26:54Z</time>
      </trkpt>
      <trkpt lat="43.53171" lon="6.25906">
        <ele>231</ele>
        <time>2013-11-20T13:27:03Z</time>
      </trkpt>
      <trkpt lat="43.5317" lon="6.25905">
        <ele>231.1</ele>
        <time>2013-11-20T13:27:04Z</time>
      </trkpt>
      <trkpt lat="43.53167" lon="6.25882">
        <ele>231.3</ele>
        <time>2013-11-20T13:27:21Z</time>
      </trkpt>
      <trkpt lat="43.53165" lon="6.25872">
        <ele>232.3</ele>
        <time>2013-11-20T13:27:27Z</time>
      </trkpt>
      <trkpt lat="43.53163" lon="6.25861">
        <ele>231.2</ele>
        <time>2013-11-20T13:27:34Z</time>
      </trkpt>
      <trkpt lat="43.5316" lon="6.2585">
        <ele>230.3</ele>
        <time>2013-11-20T13:27:40Z</time>
      </trkpt>
      <trkpt lat="43.53158" lon="6.25838">
        <ele>231.1</ele>
        <time>2013-11-20T13:27:46Z</time>
      </trkpt>
      <trkpt lat="43.53158" lon="6.25827">
        <ele>231.8</ele>
        <time>2013-11-20T13:27:52Z</time>
      </trkpt>
      <trkpt lat="43.53158" lon="6.25815">
        <ele>232.3</ele>
        <time>2013-11-20T13:27:58Z</time>
      </trkpt>
      <trkpt lat="43.53157" lon="6.25803">
        <ele>231.9</ele>
        <time>2013-11-20T13:28:04Z</time>
      </trkpt>
      <trkpt lat="43.53157" lon="6.25801">
        <ele>231.9</ele>
        <time>2013-11-20T13:28:05Z</time>
      </trkpt>
      <trkpt lat="43.53155" lon="6.25781">
        <ele>230.2</ele>
        <time>2013-11-20T13:28:17Z</time>
      </trkpt>
      <trkpt lat="43.53155" lon="6.25769">
        <ele>230.9</ele>
        <time>2013-11-20T13:28:24Z</time>
      </trkpt>
      <trkpt lat="43.53154" lon="6.25757">
        <ele>230.6</ele>
        <time>2013-11-20T13:28:32Z</time>
      </trkpt>
      <trkpt lat="43.53153" lon="6.25746">
        <ele>230.8</ele>
        <time>2013-11-20T13:28:39Z</time>
      </trkpt>
      <trkpt lat="43.53154" lon="6.25734">
        <ele>231</ele>
        <time>2013-11-20T13:28:47Z</time>
      </trkpt>
      <trkpt lat="43.53155" lon="6.25723">
        <ele>229.8</ele>
        <time>2013-11-20T13:28:54Z</time>
      </trkpt>
      <trkpt lat="43.53157" lon="6.25712">
        <ele>230.3</ele>
        <time>2013-11-20T13:29:00Z</time>
      </trkpt>
      <trkpt lat="43.53159" lon="6.25702">
        <ele>231.5</ele>
        <time>2013-11-20T13:29:06Z</time>
      </trkpt>
      <trkpt lat="43.5316" lon="6.257">
        <ele>230.8</ele>
        <time>2013-11-20T13:29:07Z</time>
      </trkpt>
      <trkpt lat="43.53163" lon="6.25679">
        <ele>230.8</ele>
        <time>2013-11-20T13:29:19Z</time>
      </trkpt>
      <trkpt lat="43.53165" lon="6.25667">
        <ele>231.1</ele>
        <time>2013-11-20T13:29:24Z</time>
      </trkpt>
      <trkpt lat="43.53168" lon="6.25657">
        <ele>230.1</ele>
        <time>2013-11-20T13:29:31Z</time>
      </trkpt>
      <trkpt lat="43.53171" lon="6.25646">
        <ele>229.7</ele>
        <time>2013-11-20T13:29:38Z</time>
      </trkpt>
      <trkpt lat="43.53176" lon="6.25638">
        <ele>230.2</ele>
        <time>2013-11-20T13:29:44Z</time>
      </trkpt>
      <trkpt lat="43.5318" lon="6.25627">
        <ele>229.4</ele>
        <time>2013-11-20T13:29:50Z</time>
      </trkpt>
      <trkpt lat="43.53183" lon="6.25618">
        <ele>229.5</ele>
        <time>2013-11-20T13:29:58Z</time>
      </trkpt>
      <trkpt lat="43.53187" lon="6.25607">
        <ele>229.1</ele>
        <time>2013-11-20T13:30:04Z</time>
      </trkpt>
      <trkpt lat="43.53191" lon="6.25597">
        <ele>229.9</ele>
        <time>2013-11-20T13:30:13Z</time>
      </trkpt>
      <trkpt lat="43.53192" lon="6.25597">
        <ele>230.2</ele>
        <time>2013-11-20T13:30:14Z</time>
      </trkpt>
      <trkpt lat="43.53198" lon="6.25578">
        <ele>229.9</ele>
        <time>2013-11-20T13:30:31Z</time>
      </trkpt>
      <trkpt lat="43.53202" lon="6.25567">
        <ele>230.6</ele>
        <time>2013-11-20T13:30:37Z</time>
      </trkpt>
      <trkpt lat="43.53205" lon="6.25557">
        <ele>229.7</ele>
        <time>2013-11-20T13:30:43Z</time>
      </trkpt>
      <trkpt lat="43.53208" lon="6.25546">
        <ele>230.3</ele>
        <time>2013-11-20T13:30:50Z</time>
      </trkpt>
      <trkpt lat="43.53212" lon="6.25535">
        <ele>229.5</ele>
        <time>2013-11-20T13:30:58Z</time>
      </trkpt>
      <trkpt lat="43.53216" lon="6.25525">
        <ele>229</ele>
        <time>2013-11-20T13:31:04Z</time>
      </trkpt>
      <trkpt lat="43.53219" lon="6.25514">
        <ele>228.5</ele>
        <time>2013-11-20T13:31:10Z</time>
      </trkpt>
      <trkpt lat="43.53222" lon="6.25504">
        <ele>229.1</ele>
        <time>2013-11-20T13:31:16Z</time>
      </trkpt>
      <trkpt lat="43.53223" lon="6.25502">
        <ele>229.1</ele>
        <time>2013-11-20T13:31:17Z</time>
      </trkpt>
      <trkpt lat="43.53229" lon="6.25483">
        <ele>229.7</ele>
        <time>2013-11-20T13:31:28Z</time>
      </trkpt>
      <trkpt lat="43.53232" lon="6.25475">
        <ele>229.1</ele>
        <time>2013-11-20T13:31:32Z</time>
      </trkpt>
      <trkpt lat="43.53236" lon="6.25465">
        <ele>229.4</ele>
        <time>2013-11-20T13:31:36Z</time>
      </trkpt>
      <trkpt lat="43.53239" lon="6.25454">
        <ele>230</ele>
        <time>2013-11-20T13:31:41Z</time>
      </trkpt>
      <trkpt lat="43.53244" lon="6.25444">
        <ele>230.7</ele>
        <time>2013-11-20T13:31:48Z</time>
      </trkpt>
      <trkpt lat="43.53248" lon="6.25433">
        <ele>230.6</ele>
        <time>2013-11-20T13:31:55Z</time>
      </trkpt>
      <trkpt lat="43.53251" lon="6.25422">
        <ele>229.2</ele>
        <time>2013-11-20T13:32:42Z</time>
      </trkpt>
      <trkpt lat="43.53251" lon="6.25421">
        <ele>229.3</ele>
        <time>2013-11-20T13:32:43Z</time>
      </trkpt>
      <trkpt lat="43.53256" lon="6.2543">
        <ele>230.4</ele>
        <time>2013-11-20T13:33:59Z</time>
      </trkpt>
      <trkpt lat="43.53255" lon="6.2543">
        <ele>230.7</ele>
        <time>2013-11-20T13:34:00Z</time>
      </trkpt>
      <trkpt lat="43.53261" lon="6.25419">
        <ele>231.5</ele>
        <time>2013-11-20T13:35:45Z</time>
      </trkpt>
      <trkpt lat="43.53271" lon="6.25401">
        <ele>232.5</ele>
        <time>2013-11-20T13:36:26Z</time>
      </trkpt>
      <trkpt lat="43.53274" lon="6.25389">
        <ele>233.3</ele>
        <time>2013-11-20T13:36:38Z</time>
      </trkpt>
      <trkpt lat="43.5328" lon="6.25381">
        <ele>233.4</ele>
        <time>2013-11-20T13:36:48Z</time>
      </trkpt>
      <trkpt lat="43.53281" lon="6.2538">
        <ele>233.6</ele>
        <time>2013-11-20T13:36:49Z</time>
      </trkpt>
      <trkpt lat="43.53293" lon="6.25369">
        <ele>233.4</ele>
        <time>2013-11-20T13:37:02Z</time>
      </trkpt>
      <trkpt lat="43.533" lon="6.25363">
        <ele>233.9</ele>
        <time>2013-11-20T13:37:08Z</time>
      </trkpt>
      <trkpt lat="43.53309" lon="6.25359">
        <ele>232.7</ele>
        <time>2013-11-20T13:37:15Z</time>
      </trkpt>
      <trkpt lat="43.53316" lon="6.25359">
        <ele>233.7</ele>
        <time>2013-11-20T13:37:20Z</time>
      </trkpt>
      <trkpt lat="43.53324" lon="6.2536">
        <ele>233.2</ele>
        <time>2013-11-20T13:37:25Z</time>
      </trkpt>
      <trkpt lat="43.53332" lon="6.25357">
        <ele>233.4</ele>
        <time>2013-11-20T13:37:30Z</time>
      </trkpt>
      <trkpt lat="43.5334" lon="6.25353">
        <ele>232.7</ele>
        <time>2013-11-20T13:37:36Z</time>
      </trkpt>
      <trkpt lat="43.53348" lon="6.25351">
        <ele>232.5</ele>
        <time>2013-11-20T13:37:43Z</time>
      </trkpt>
      <trkpt lat="43.53356" lon="6.2535">
        <ele>232.2</ele>
        <time>2013-11-20T13:37:49Z</time>
      </trkpt>
      <trkpt lat="43.53357" lon="6.25349">
        <ele>232.3</ele>
        <time>2013-11-20T13:37:50Z</time>
      </trkpt>
      <trkpt lat="43.53373" lon="6.25348">
        <ele>232.5</ele>
        <time>2013-11-20T13:38:01Z</time>
      </trkpt>
      <trkpt lat="43.53381" lon="6.2535">
        <ele>231.1</ele>
        <time>2013-11-20T13:38:07Z</time>
      </trkpt>
      <trkpt lat="43.53389" lon="6.25352">
        <ele>232</ele>
        <time>2013-11-20T13:38:12Z</time>
      </trkpt>
      <trkpt lat="43.53398" lon="6.25354">
        <ele>232.1</ele>
        <time>2013-11-20T13:38:19Z</time>
      </trkpt>
      <trkpt lat="43.53405" lon="6.25357">
        <ele>232</ele>
        <time>2013-11-20T13:38:24Z</time>
      </trkpt>
      <trkpt lat="43.53413" lon="6.25358">
        <ele>232.3</ele>
        <time>2013-11-20T13:38:31Z</time>
      </trkpt>
      <trkpt lat="43.53422" lon="6.25357">
        <ele>232.8</ele>
        <time>2013-11-20T13:38:38Z</time>
      </trkpt>
      <trkpt lat="43.5343" lon="6.25354">
        <ele>231.3</ele>
        <time>2013-11-20T13:38:46Z</time>
      </trkpt>
      <trkpt lat="43.53437" lon="6.25352">
        <ele>231.7</ele>
        <time>2013-11-20T13:38:52Z</time>
      </trkpt>
      <trkpt lat="43.53439" lon="6.25351">
        <ele>232.1</ele>
        <time>2013-11-20T13:38:53Z</time>
      </trkpt>
      <trkpt lat="43.53452" lon="6.25342">
        <ele>230.4</ele>
        <time>2013-11-20T13:39:05Z</time>
      </trkpt>
      <trkpt lat="43.5346" lon="6.25337">
        <ele>231.6</ele>
        <time>2013-11-20T13:39:12Z</time>
      </trkpt>
      <trkpt lat="43.53468" lon="6.25334">
        <ele>231.8</ele>
        <time>2013-11-20T13:39:18Z</time>
      </trkpt>
      <trkpt lat="43.53477" lon="6.25332">
        <ele>232.3</ele>
        <time>2013-11-20T13:39:24Z</time>
      </trkpt>
      <trkpt lat="43.53485" lon="6.25329">
        <ele>231.6</ele>
        <time>2013-11-20T13:39:30Z</time>
      </trkpt>
      <trkpt lat="43.53493" lon="6.25329">
        <ele>231.9</ele>
        <time>2013-11-20T13:39:35Z</time>
      </trkpt>
      <trkpt lat="43.53501" lon="6.25327">
        <ele>231.3</ele>
        <time>2013-11-20T13:39:40Z</time>
      </trkpt>
      <trkpt lat="43.5351" lon="6.25328">
        <ele>230.7</ele>
        <time>2013-11-20T13:39:45Z</time>
      </trkpt>
      <trkpt lat="43.53518" lon="6.25325">
        <ele>230.1</ele>
        <time>2013-11-20T13:39:52Z</time>
      </trkpt>
      <trkpt lat="43.53526" lon="6.25321">
        <ele>228.7</ele>
        <time>2013-11-20T13:39:59Z</time>
      </trkpt>
      <trkpt lat="43.53528" lon="6.2532">
        <ele>229.3</ele>
        <time>2013-11-20T13:40:00Z</time>
      </trkpt>
      <trkpt lat="43.53542" lon="6.25316">
        <ele>229.3</ele>
        <time>2013-11-20T13:40:11Z</time>
      </trkpt>
      <trkpt lat="43.53549" lon="6.25314">
        <ele>228.6</ele>
        <time>2013-11-20T13:40:16Z</time>
      </trkpt>
      <trkpt lat="43.53558" lon="6.25311">
        <ele>230</ele>
        <time>2013-11-20T13:40:23Z</time>
      </trkpt>
      <trkpt lat="43.53566" lon="6.25309">
        <ele>230.3</ele>
        <time>2013-11-20T13:40:30Z</time>
      </trkpt>
      <trkpt lat="43.53574" lon="6.2531">
        <ele>229.3</ele>
        <time>2013-11-20T13:40:36Z</time>
      </trkpt>
      <trkpt lat="43.53582" lon="6.25311">
        <ele>229.5</ele>
        <time>2013-11-20T13:40:42Z</time>
      </trkpt>
      <trkpt lat="43.5359" lon="6.2531">
        <ele>230.9</ele>
        <time>2013-11-20T13:40:48Z</time>
      </trkpt>
      <trkpt lat="43.53599" lon="6.25314">
        <ele>230.1</ele>
        <time>2013-11-20T13:40:57Z</time>
      </trkpt>
      <trkpt lat="43.53607" lon="6.2531">
        <ele>228.8</ele>
        <time>2013-11-20T13:41:06Z</time>
      </trkpt>
      <trkpt lat="43.53608" lon="6.2531">
        <ele>228.5</ele>
        <time>2013-11-20T13:41:07Z</time>
      </trkpt>
      <trkpt lat="43.53624" lon="6.25313">
        <ele>230.2</ele>
        <time>2013-11-20T13:41:22Z</time>
      </trkpt>
      <trkpt lat="43.53631" lon="6.25318">
        <ele>230.8</ele>
        <time>2013-11-20T13:41:28Z</time>
      </trkpt>
      <trkpt lat="43.53639" lon="6.25321">
        <ele>229.7</ele>
        <time>2013-11-20T13:41:34Z</time>
      </trkpt>
      <trkpt lat="43.53646" lon="6.25324">
        <ele>229.2</ele>
        <time>2013-11-20T13:41:39Z</time>
      </trkpt>
      <trkpt lat="43.53654" lon="6.25327">
        <ele>228.5</ele>
        <time>2013-11-20T13:41:44Z</time>
      </trkpt>
      <trkpt lat="43.53661" lon="6.2533">
        <ele>228.4</ele>
        <time>2013-11-20T13:41:48Z</time>
      </trkpt>
      <trkpt lat="43.53669" lon="6.25334">
        <ele>228.5</ele>
        <time>2013-11-20T13:41:53Z</time>
      </trkpt>
      <trkpt lat="43.53675" lon="6.2534">
        <ele>229.1</ele>
        <time>2013-11-20T13:41:58Z</time>
      </trkpt>
      <trkpt lat="43.53682" lon="6.25346">
        <ele>228.6</ele>
        <time>2013-11-20T13:42:04Z</time>
      </trkpt>
      <trkpt lat="43.53689" lon="6.25355">
        <ele>228.3</ele>
        <time>2013-11-20T13:42:11Z</time>
      </trkpt>
      <trkpt lat="43.5369" lon="6.25356">
        <ele>228.6</ele>
        <time>2013-11-20T13:42:12Z</time>
      </trkpt>
      <trkpt lat="43.537" lon="6.25373">
        <ele>229.1</ele>
        <time>2013-11-20T13:42:23Z</time>
      </trkpt>
      <trkpt lat="43.53704" lon="6.25382">
        <ele>229.9</ele>
        <time>2013-11-20T13:42:30Z</time>
      </trkpt>
      <trkpt lat="43.53708" lon="6.25392">
        <ele>230.3</ele>
        <time>2013-11-20T13:42:36Z</time>
      </trkpt>
      <trkpt lat="43.53711" lon="6.25402">
        <ele>230.4</ele>
        <time>2013-11-20T13:42:43Z</time>
      </trkpt>
      <trkpt lat="43.53715" lon="6.25412">
        <ele>229.4</ele>
        <time>2013-11-20T13:42:49Z</time>
      </trkpt>
      <trkpt lat="43.53718" lon="6.25423">
        <ele>229.1</ele>
        <time>2013-11-20T13:42:56Z</time>
      </trkpt>
      <trkpt lat="43.53723" lon="6.25431">
        <ele>229.2</ele>
        <time>2013-11-20T13:43:02Z</time>
      </trkpt>
      <trkpt lat="43.53728" lon="6.2544">
        <ele>228.4</ele>
        <time>2013-11-20T13:43:08Z</time>
      </trkpt>
      <trkpt lat="43.53733" lon="6.25448">
        <ele>228.8</ele>
        <time>2013-11-20T13:43:15Z</time>
      </trkpt>
      <trkpt lat="43.53734" lon="6.2545">
        <ele>228.7</ele>
        <time>2013-11-20T13:43:16Z</time>
      </trkpt>
      <trkpt lat="43.53741" lon="6.25468">
        <ele>228.3</ele>
        <time>2013-11-20T13:43:30Z</time>
      </trkpt>
      <trkpt lat="43.53745" lon="6.25478">
        <ele>229.4</ele>
        <time>2013-11-20T13:43:36Z</time>
      </trkpt>
      <trkpt lat="43.5375" lon="6.25488">
        <ele>228.9</ele>
        <time>2013-11-20T13:43:44Z</time>
      </trkpt>
      <trkpt lat="43.53755" lon="6.25498">
        <ele>228.2</ele>
        <time>2013-11-20T13:43:50Z</time>
      </trkpt>
      <trkpt lat="43.53759" lon="6.25506">
        <ele>228.2</ele>
        <time>2013-11-20T13:43:55Z</time>
      </trkpt>
      <trkpt lat="43.53764" lon="6.25516">
        <ele>227.5</ele>
        <time>2013-11-20T13:44:01Z</time>
      </trkpt>
      <trkpt lat="43.5377" lon="6.25524">
        <ele>227</ele>
        <time>2013-11-20T13:44:13Z</time>
      </trkpt>
      <trkpt lat="43.53776" lon="6.25533">
        <ele>226.2</ele>
        <time>2013-11-20T13:44:25Z</time>
      </trkpt>
      <trkpt lat="43.53776" lon="6.25535">
        <ele>226.5</ele>
        <time>2013-11-20T13:44:26Z</time>
      </trkpt>
      <trkpt lat="43.53785" lon="6.25553">
        <ele>227.3</ele>
        <time>2013-11-20T13:44:38Z</time>
      </trkpt>
      <trkpt lat="43.53791" lon="6.25561">
        <ele>227.3</ele>
        <time>2013-11-20T13:44:47Z</time>
      </trkpt>
      <trkpt lat="43.53798" lon="6.25566">
        <ele>228.3</ele>
        <time>2013-11-20T13:44:55Z</time>
      </trkpt>
      <trkpt lat="43.53806" lon="6.25571">
        <ele>227.3</ele>
        <time>2013-11-20T13:45:02Z</time>
      </trkpt>
      <trkpt lat="43.53813" lon="6.25578">
        <ele>227.8</ele>
        <time>2013-11-20T13:45:09Z</time>
      </trkpt>
      <trkpt lat="43.53819" lon="6.25584">
        <ele>228.2</ele>
        <time>2013-11-20T13:45:17Z</time>
      </trkpt>
      <trkpt lat="43.53827" lon="6.25589">
        <ele>227.9</ele>
        <time>2013-11-20T13:45:24Z</time>
      </trkpt>
      <trkpt lat="43.53834" lon="6.25593">
        <ele>228</ele>
        <time>2013-11-20T13:45:31Z</time>
      </trkpt>
      <trkpt lat="43.53836" lon="6.25594">
        <ele>228.2</ele>
        <time>2013-11-20T13:45:32Z</time>
      </trkpt>
      <trkpt lat="43.5385" lon="6.25603">
        <ele>226.7</ele>
        <time>2013-11-20T13:45:44Z</time>
      </trkpt>
      <trkpt lat="43.53856" lon="6.2561">
        <ele>227.6</ele>
        <time>2013-11-20T13:45:51Z</time>
      </trkpt>
      <trkpt lat="43.53864" lon="6.25614">
        <ele>226.8</ele>
        <time>2013-11-20T13:45:59Z</time>
      </trkpt>
      <trkpt lat="43.53872" lon="6.25619">
        <ele>226.5</ele>
        <time>2013-11-20T13:46:06Z</time>
      </trkpt>
      <trkpt lat="43.53879" lon="6.25625">
        <ele>226.2</ele>
        <time>2013-11-20T13:46:12Z</time>
      </trkpt>
      <trkpt lat="43.53886" lon="6.25633">
        <ele>226</ele>
        <time>2013-11-20T13:46:18Z</time>
      </trkpt>
      <trkpt lat="43.53893" lon="6.25638">
        <ele>225.7</ele>
        <time>2013-11-20T13:46:26Z</time>
      </trkpt>
      <trkpt lat="43.53901" lon="6.25641">
        <ele>225.3</ele>
        <time>2013-11-20T13:46:33Z</time>
      </trkpt>
      <trkpt lat="43.53902" lon="6.25642">
        <ele>225.2</ele>
        <time>2013-11-20T13:46:34Z</time>
      </trkpt>
      <trkpt lat="43.53913" lon="6.25655">
        <ele>225.8</ele>
        <time>2013-11-20T13:46:45Z</time>
      </trkpt>
      <trkpt lat="43.53919" lon="6.25664">
        <ele>226.2</ele>
        <time>2013-11-20T13:46:52Z</time>
      </trkpt>
      <trkpt lat="43.53925" lon="6.25671">
        <ele>225.9</ele>
        <time>2013-11-20T13:46:59Z</time>
      </trkpt>
      <trkpt lat="43.53931" lon="6.25677">
        <ele>225.6</ele>
        <time>2013-11-20T13:47:04Z</time>
      </trkpt>
      <trkpt lat="43.53939" lon="6.25681">
        <ele>225.4</ele>
        <time>2013-11-20T13:47:09Z</time>
      </trkpt>
      <trkpt lat="43.53945" lon="6.25686">
        <ele>225.2</ele>
        <time>2013-11-20T13:47:17Z</time>
      </trkpt>
      <trkpt lat="43.53953" lon="6.25691">
        <ele>225</ele>
        <time>2013-11-20T13:47:23Z</time>
      </trkpt>
      <trkpt lat="43.53962" lon="6.25694">
        <ele>225.6</ele>
        <time>2013-11-20T13:47:29Z</time>
      </trkpt>
      <trkpt lat="43.5397" lon="6.25696">
        <ele>224.6</ele>
        <time>2013-11-20T13:47:36Z</time>
      </trkpt>
      <trkpt lat="43.53971" lon="6.25697">
        <ele>224.3</ele>
        <time>2013-11-20T13:47:37Z</time>
      </trkpt>
      <trkpt lat="43.53985" lon="6.25703">
        <ele>223.9</ele>
        <time>2013-11-20T13:47:47Z</time>
      </trkpt>
      <trkpt lat="43.53993" lon="6.25708">
        <ele>222.7</ele>
        <time>2013-11-20T13:47:55Z</time>
      </trkpt>
      <trkpt lat="43.54" lon="6.25713">
        <ele>222.3</ele>
        <time>2013-11-20T13:48:03Z</time>
      </trkpt>
      <trkpt lat="43.54008" lon="6.25719">
        <ele>222.8</ele>
        <time>2013-11-20T13:48:10Z</time>
      </trkpt>
      <trkpt lat="43.54016" lon="6.25722">
        <ele>222.2</ele>
        <time>2013-11-20T13:48:16Z</time>
      </trkpt>
      <trkpt lat="43.54024" lon="6.25723">
        <ele>222.3</ele>
        <time>2013-11-20T13:48:22Z</time>
      </trkpt>
      <trkpt lat="43.54031" lon="6.25724">
        <ele>222.7</ele>
        <time>2013-11-20T13:48:28Z</time>
      </trkpt>
      <trkpt lat="43.54039" lon="6.25725">
        <ele>223.2</ele>
        <time>2013-11-20T13:48:35Z</time>
      </trkpt>
      <trkpt lat="43.54048" lon="6.25725">
        <ele>222.2</ele>
        <time>2013-11-20T13:48:43Z</time>
      </trkpt>
      <trkpt lat="43.54049" lon="6.25725">
        <ele>221.4</ele>
        <time>2013-11-20T13:48:44Z</time>
      </trkpt>
      <trkpt lat="43.54064" lon="6.25725">
        <ele>221.6</ele>
        <time>2013-11-20T13:48:55Z</time>
      </trkpt>
      <trkpt lat="43.54073" lon="6.25724">
        <ele>222.3</ele>
        <time>2013-11-20T13:49:02Z</time>
      </trkpt>
      <trkpt lat="43.54081" lon="6.25725">
        <ele>222.1</ele>
        <time>2013-11-20T13:49:07Z</time>
      </trkpt>
      <trkpt lat="43.54089" lon="6.25725">
        <ele>221.4</ele>
        <time>2013-11-20T13:49:13Z</time>
      </trkpt>
      <trkpt lat="43.54097" lon="6.25722">
        <ele>221.9</ele>
        <time>2013-11-20T13:49:21Z</time>
      </trkpt>
      <trkpt lat="43.54105" lon="6.25719">
        <ele>223.2</ele>
        <time>2013-11-20T13:49:29Z</time>
      </trkpt>
      <trkpt lat="43.54113" lon="6.25716">
        <ele>223.3</ele>
        <time>2013-11-20T13:49:36Z</time>
      </trkpt>
      <trkpt lat="43.54121" lon="6.25711">
        <ele>222.7</ele>
        <time>2013-11-20T13:49:44Z</time>
      </trkpt>
      <trkpt lat="43.54122" lon="6.2571">
        <ele>222.7</ele>
        <time>2013-11-20T13:49:45Z</time>
      </trkpt>
      <trkpt lat="43.54137" lon="6.25706">
        <ele>221.5</ele>
        <time>2013-11-20T13:49:57Z</time>
      </trkpt>
      <trkpt lat="43.54146" lon="6.25706">
        <ele>221.5</ele>
        <time>2013-11-20T13:50:03Z</time>
      </trkpt>
      <trkpt lat="43.54153" lon="6.25707">
        <ele>221.8</ele>
        <time>2013-11-20T13:50:09Z</time>
      </trkpt>
      <trkpt lat="43.54162" lon="6.25709">
        <ele>222</ele>
        <time>2013-11-20T13:50:22Z</time>
      </trkpt>
      <trkpt lat="43.54171" lon="6.25709">
        <ele>221.3</ele>
        <time>2013-11-20T13:51:16Z</time>
      </trkpt>
      <trkpt lat="43.54171" lon="6.25709">
        <ele>221.5</ele>
        <time>2013-11-20T13:51:17Z</time>
      </trkpt>
      <trkpt lat="43.54186" lon="6.25707">
        <ele>221.5</ele>
        <time>2013-11-20T13:51:30Z</time>
      </trkpt>
      <trkpt lat="43.54194" lon="6.25712">
        <ele>221.3</ele>
        <time>2013-11-20T13:51:40Z</time>
      </trkpt>
      <trkpt lat="43.542" lon="6.25721">
        <ele>222.2</ele>
        <time>2013-11-20T13:52:34Z</time>
      </trkpt>
      <trkpt lat="43.542" lon="6.25722">
        <ele>222.1</ele>
        <time>2013-11-20T13:52:35Z</time>
      </trkpt>
      <trkpt lat="43.54211" lon="6.25739">
        <ele>219.3</ele>
        <time>2013-11-20T13:52:58Z</time>
      </trkpt>
      <trkpt lat="43.54216" lon="6.25748">
        <ele>219.2</ele>
        <time>2013-11-20T13:53:09Z</time>
      </trkpt>
      <trkpt lat="43.54216" lon="6.2576">
        <ele>219.1</ele>
        <time>2013-11-20T13:53:30Z</time>
      </trkpt>
      <trkpt lat="43.54211" lon="6.2577">
        <ele>219.9</ele>
        <time>2013-11-20T13:54:06Z</time>
      </trkpt>
      <trkpt lat="43.5421" lon="6.2577">
        <ele>219.9</ele>
        <time>2013-11-20T13:54:07Z</time>
      </trkpt>
      <trkpt lat="43.54213" lon="6.25758">
        <ele>217.8</ele>
        <time>2013-11-20T13:55:38Z</time>
      </trkpt>
      <trkpt lat="43.54208" lon="6.25737">
        <ele>222.4</ele>
        <time>2013-11-20T13:55:59Z</time>
      </trkpt>
      <trkpt lat="43.54205" lon="6.25726">
        <ele>222.1</ele>
        <time>2013-11-20T13:56:08Z</time>
      </trkpt>
      <trkpt lat="43.54208" lon="6.25716">
        <ele>220.6</ele>
        <time>2013-11-20T13:56:17Z</time>
      </trkpt>
      <trkpt lat="43.54216" lon="6.25711">
        <ele>220.5</ele>
        <time>2013-11-20T13:56:25Z</time>
      </trkpt>
      <trkpt lat="43.54224" lon="6.25709">
        <ele>221.1</ele>
        <time>2013-11-20T13:56:32Z</time>
      </trkpt>
      <trkpt lat="43.54233" lon="6.25708">
        <ele>220.2</ele>
        <time>2013-11-20T13:56:39Z</time>
      </trkpt>
      <trkpt lat="43.54234" lon="6.25707">
        <ele>220.4</ele>
        <time>2013-11-20T13:56:40Z</time>
      </trkpt>
      <trkpt lat="43.54249" lon="6.25704">
        <ele>220.5</ele>
        <time>2013-11-20T13:56:53Z</time>
      </trkpt>
      <trkpt lat="43.54257" lon="6.25701">
        <ele>220.3</ele>
        <time>2013-11-20T13:57:00Z</time>
      </trkpt>
      <trkpt lat="43.54266" lon="6.25698">
        <ele>221.3</ele>
        <time>2013-11-20T13:57:07Z</time>
      </trkpt>
      <trkpt lat="43.54274" lon="6.25696">
        <ele>220.7</ele>
        <time>2013-11-20T13:57:14Z</time>
      </trkpt>
      <trkpt lat="43.54281" lon="6.25689">
        <ele>220.4</ele>
        <time>2013-11-20T13:57:24Z</time>
      </trkpt>
      <trkpt lat="43.54289" lon="6.25686">
        <ele>219.6</ele>
        <time>2013-11-20T13:57:30Z</time>
      </trkpt>
      <trkpt lat="43.54297" lon="6.25687">
        <ele>220.7</ele>
        <time>2013-11-20T13:57:36Z</time>
      </trkpt>
      <trkpt lat="43.54305" lon="6.25686">
        <ele>220.6</ele>
        <time>2013-11-20T13:57:42Z</time>
      </trkpt>
      <trkpt lat="43.54306" lon="6.25685">
        <ele>220.6</ele>
        <time>2013-11-20T13:57:43Z</time>
      </trkpt>
      <trkpt lat="43.54322" lon="6.25682">
        <ele>219.6</ele>
        <time>2013-11-20T13:57:54Z</time>
      </trkpt>
      <trkpt lat="43.5433" lon="6.25678">
        <ele>219.5</ele>
        <time>2013-11-20T13:58:00Z</time>
      </trkpt>
      <trkpt lat="43.54338" lon="6.25673">
        <ele>221</ele>
        <time>2013-11-20T13:58:08Z</time>
      </trkpt>
      <trkpt lat="43.54345" lon="6.25668">
        <ele>220.4</ele>
        <time>2013-11-20T13:58:15Z</time>
      </trkpt>
      <trkpt lat="43.54353" lon="6.25664">
        <ele>219.9</ele>
        <time>2013-11-20T13:58:23Z</time>
      </trkpt>
      <trkpt lat="43.54361" lon="6.25661">
        <ele>220.4</ele>
        <time>2013-11-20T13:58:31Z</time>
      </trkpt>
      <trkpt lat="43.54369" lon="6.25656">
        <ele>220.4</ele>
        <time>2013-11-20T13:58:38Z</time>
      </trkpt>
      <trkpt lat="43.54376" lon="6.25649">
        <ele>220.2</ele>
        <time>2013-11-20T13:58:44Z</time>
      </trkpt>
      <trkpt lat="43.54377" lon="6.25648">
        <ele>220</ele>
        <time>2013-11-20T13:58:45Z</time>
      </trkpt>
      <trkpt lat="43.5439" lon="6.25635">
        <ele>220.3</ele>
        <time>2013-11-20T13:58:57Z</time>
      </trkpt>
      <trkpt lat="43.54397" lon="6.25629">
        <ele>220.5</ele>
        <time>2013-11-20T13:59:03Z</time>
      </trkpt>
      <trkpt lat="43.54404" lon="6.25622">
        <ele>217.8</ele>
        <time>2013-11-20T13:59:10Z</time>
      </trkpt>
      <trkpt lat="43.54411" lon="6.25615">
        <ele>218.5</ele>
        <time>2013-11-20T13:59:16Z</time>
      </trkpt>
      <trkpt lat="43.54416" lon="6.25608">
        <ele>218.7</ele>
        <time>2013-11-20T13:59:21Z</time>
      </trkpt>
      <trkpt lat="43.54422" lon="6.25601">
        <ele>217.5</ele>
        <time>2013-11-20T13:59:26Z</time>
      </trkpt>
      <trkpt lat="43.54428" lon="6.25593">
        <ele>217.4</ele>
        <time>2013-11-20T13:59:32Z</time>
      </trkpt>
      <trkpt lat="43.54434" lon="6.25585">
        <ele>218.8</ele>
        <time>2013-11-20T13:59:39Z</time>
      </trkpt>
      <trkpt lat="43.5444" lon="6.25578">
        <ele>218.7</ele>
        <time>2013-11-20T13:59:44Z</time>
      </trkpt>
      <trkpt lat="43.54444" lon="6.25569">
        <ele>219</ele>
        <time>2013-11-20T13:59:50Z</time>
      </trkpt>
      <trkpt lat="43.54445" lon="6.25568">
        <ele>218.8</ele>
        <time>2013-11-20T13:59:51Z</time>
      </trkpt>
      <trkpt lat="43.54455" lon="6.25554">
        <ele>218.1</ele>
        <time>2013-11-20T14:00:05Z</time>
      </trkpt>
      <trkpt lat="43.54459" lon="6.25544">
        <ele>217.9</ele>
        <time>2013-11-20T14:00:13Z</time>
      </trkpt>
      <trkpt lat="43.54464" lon="6.25535">
        <ele>217.3</ele>
        <time>2013-11-20T14:00:21Z</time>
      </trkpt>
      <trkpt lat="43.54469" lon="6.25525">
        <ele>217.5</ele>
        <time>2013-11-20T14:00:28Z</time>
      </trkpt>
      <trkpt lat="43.54472" lon="6.25515">
        <ele>217.5</ele>
        <time>2013-11-20T14:00:36Z</time>
      </trkpt>
      <trkpt lat="43.54474" lon="6.25505">
        <ele>216.7</ele>
        <time>2013-11-20T14:00:41Z</time>
      </trkpt>
      <trkpt lat="43.54476" lon="6.25493">
        <ele>216.9</ele>
        <time>2013-11-20T14:00:45Z</time>
      </trkpt>
      <trkpt lat="43.5448" lon="6.25483">
        <ele>217.4</ele>
        <time>2013-11-20T14:00:50Z</time>
      </trkpt>
      <trkpt lat="43.54485" lon="6.25475">
        <ele>216.7</ele>
        <time>2013-11-20T14:00:55Z</time>
      </trkpt>
      <trkpt lat="43.54486" lon="6.25474">
        <ele>216.7</ele>
        <time>2013-11-20T14:00:56Z</time>
      </trkpt>
      <trkpt lat="43.54496" lon="6.25457">
        <ele>216.4</ele>
        <time>2013-11-20T14:01:10Z</time>
      </trkpt>
      <trkpt lat="43.54499" lon="6.25447">
        <ele>216.2</ele>
        <time>2013-11-20T14:01:16Z</time>
      </trkpt>
      <trkpt lat="43.54501" lon="6.25435">
        <ele>216.6</ele>
        <time>2013-11-20T14:01:24Z</time>
      </trkpt>
      <trkpt lat="43.54504" lon="6.25424">
        <ele>216.9</ele>
        <time>2013-11-20T14:01:33Z</time>
      </trkpt>
      <trkpt lat="43.54507" lon="6.25414">
        <ele>217</ele>
        <time>2013-11-20T14:01:41Z</time>
      </trkpt>
      <trkpt lat="43.54508" lon="6.25404">
        <ele>216.4</ele>
        <time>2013-11-20T14:01:46Z</time>
      </trkpt>
      <trkpt lat="43.54511" lon="6.25394">
        <ele>216.8</ele>
        <time>2013-11-20T14:01:52Z</time>
      </trkpt>
      <trkpt lat="43.54516" lon="6.25384">
        <ele>217.1</ele>
        <time>2013-11-20T14:01:59Z</time>
      </trkpt>
      <trkpt lat="43.54517" lon="6.25382">
        <ele>217.3</ele>
        <time>2013-11-20T14:02:00Z</time>
      </trkpt>
      <trkpt lat="43.54522" lon="6.25362">
        <ele>216</ele>
        <time>2013-11-20T14:02:12Z</time>
      </trkpt>
      <trkpt lat="43.54531" lon="6.25363">
        <ele>215.1</ele>
        <time>2013-11-20T14:02:18Z</time>
      </trkpt>
      <trkpt lat="43.54533" lon="6.25374">
        <ele>217</ele>
        <time>2013-11-20T14:02:30Z</time>
      </trkpt>
      <trkpt lat="43.54533" lon="6.25386">
        <ele>218.6</ele>
        <time>2013-11-20T14:02:54Z</time>
      </trkpt>
      <trkpt lat="43.54531" lon="6.25397">
        <ele>218.5</ele>
        <time>2013-11-20T14:03:03Z</time>
      </trkpt>
      <trkpt lat="43.54531" lon="6.25398">
        <ele>218.7</ele>
        <time>2013-11-20T14:03:04Z</time>
      </trkpt>
      <trkpt lat="43.54529" lon="6.2542">
        <ele>218.7</ele>
        <time>2013-11-20T14:03:20Z</time>
      </trkpt>
      <trkpt lat="43.54524" lon="6.25428">
        <ele>218.2</ele>
        <time>2013-11-20T14:03:29Z</time>
      </trkpt>
      <trkpt lat="43.54521" lon="6.25439">
        <ele>219.5</ele>
        <time>2013-11-20T14:03:35Z</time>
      </trkpt>
      <trkpt lat="43.54516" lon="6.2545">
        <ele>219.5</ele>
        <time>2013-11-20T14:03:42Z</time>
      </trkpt>
      <trkpt lat="43.54513" lon="6.25461">
        <ele>220.6</ele>
        <time>2013-11-20T14:03:49Z</time>
      </trkpt>
      <trkpt lat="43.54508" lon="6.2547">
        <ele>219.4</ele>
        <time>2013-11-20T14:03:55Z</time>
      </trkpt>
      <trkpt lat="43.54504" lon="6.25479">
        <ele>219.7</ele>
        <time>2013-11-20T14:04:01Z</time>
      </trkpt>
      <trkpt lat="43.54499" lon="6.25488">
        <ele>220.2</ele>
        <time>2013-11-20T14:04:06Z</time>
      </trkpt>
      <trkpt lat="43.54498" lon="6.25489">
        <ele>220.4</ele>
        <time>2013-11-20T14:04:07Z</time>
      </trkpt>
      <trkpt lat="43.5449" lon="6.25509">
        <ele>220.1</ele>
        <time>2013-11-20T14:04:21Z</time>
      </trkpt>
      <trkpt lat="43.54488" lon="6.2552">
        <ele>219.9</ele>
        <time>2013-11-20T14:04:28Z</time>
      </trkpt>
      <trkpt lat="43.54484" lon="6.25531">
        <ele>221</ele>
        <time>2013-11-20T14:04:36Z</time>
      </trkpt>
      <trkpt lat="43.5448" lon="6.25541">
        <ele>221</ele>
        <time>2013-11-20T14:04:42Z</time>
      </trkpt>
      <trkpt lat="43.54477" lon="6.2555">
        <ele>221.6</ele>
        <time>2013-11-20T14:04:48Z</time>
      </trkpt>
      <trkpt lat="43.54473" lon="6.25562">
        <ele>221.9</ele>
        <time>2013-11-20T14:04:56Z</time>
      </trkpt>
      <trkpt lat="43.54467" lon="6.25569">
        <ele>222.1</ele>
        <time>2013-11-20T14:05:04Z</time>
      </trkpt>
      <trkpt lat="43.54462" lon="6.25578">
        <ele>221.8</ele>
        <time>2013-11-20T14:05:09Z</time>
      </trkpt>
      <trkpt lat="43.54461" lon="6.25579">
        <ele>221.9</ele>
        <time>2013-11-20T14:05:10Z</time>
      </trkpt>
      <trkpt lat="43.54451" lon="6.25594">
        <ele>222.7</ele>
        <time>2013-11-20T14:05:23Z</time>
      </trkpt>
      <trkpt lat="43.54444" lon="6.256">
        <ele>224.2</ele>
        <time>2013-11-20T14:05:30Z</time>
      </trkpt>
      <trkpt lat="43.54438" lon="6.25608">
        <ele>223.9</ele>
        <time>2013-11-20T14:05:36Z</time>
      </trkpt>
      <trkpt lat="43.54433" lon="6.25616">
        <ele>226</ele>
        <time>2013-11-20T14:05:43Z</time>
      </trkpt>
      <trkpt lat="43.5443" lon="6.25627">
        <ele>225.7</ele>
        <time>2013-11-20T14:05:50Z</time>
      </trkpt>
      <trkpt lat="43.54425" lon="6.25637">
        <ele>226.5</ele>
        <time>2013-11-20T14:05:56Z</time>
      </trkpt>
      <trkpt lat="43.54422" lon="6.25648">
        <ele>227.2</ele>
        <time>2013-11-20T14:06:02Z</time>
      </trkpt>
      <trkpt lat="43.5442" lon="6.25658">
        <ele>228.7</ele>
        <time>2013-11-20T14:06:09Z</time>
      </trkpt>
      <trkpt lat="43.54413" lon="6.25666">
        <ele>228.8</ele>
        <time>2013-11-20T14:06:16Z</time>
      </trkpt>
      <trkpt lat="43.54412" lon="6.25666">
        <ele>229.2</ele>
        <time>2013-11-20T14:06:17Z</time>
      </trkpt>
      <trkpt lat="43.54404" lon="6.25681">
        <ele>230.3</ele>
        <time>2013-11-20T14:06:27Z</time>
      </trkpt>
      <trkpt lat="43.54397" lon="6.25688">
        <ele>229.3</ele>
        <time>2013-11-20T14:06:32Z</time>
      </trkpt>
      <trkpt lat="43.54392" lon="6.25698">
        <ele>231</ele>
        <time>2013-11-20T14:06:41Z</time>
      </trkpt>
      <trkpt lat="43.54389" lon="6.25707">
        <ele>232.1</ele>
        <time>2013-11-20T14:06:49Z</time>
      </trkpt>
      <trkpt lat="43.54384" lon="6.25718">
        <ele>232.9</ele>
        <time>2013-11-20T14:06:55Z</time>
      </trkpt>
      <trkpt lat="43.5438" lon="6.25728">
        <ele>234</ele>
        <time>2013-11-20T14:07:04Z</time>
      </trkpt>
      <trkpt lat="43.54372" lon="6.25733">
        <ele>235.2</ele>
        <time>2013-11-20T14:07:11Z</time>
      </trkpt>
      <trkpt lat="43.54365" lon="6.25739">
        <ele>236.2</ele>
        <time>2013-11-20T14:07:17Z</time>
      </trkpt>
      <trkpt lat="43.54364" lon="6.2574">
        <ele>236.7</ele>
        <time>2013-11-20T14:07:18Z</time>
      </trkpt>
      <trkpt lat="43.54354" lon="6.25756">
        <ele>238.5</ele>
        <time>2013-11-20T14:07:32Z</time>
      </trkpt>
      <trkpt lat="43.54349" lon="6.25767">
        <ele>238.6</ele>
        <time>2013-11-20T14:07:43Z</time>
      </trkpt>
      <trkpt lat="43.54344" lon="6.25776">
        <ele>238.6</ele>
        <time>2013-11-20T14:07:53Z</time>
      </trkpt>
      <trkpt lat="43.54341" lon="6.25786">
        <ele>238.4</ele>
        <time>2013-11-20T14:08:00Z</time>
      </trkpt>
      <trkpt lat="43.54338" lon="6.25797">
        <ele>237.8</ele>
        <time>2013-11-20T14:08:07Z</time>
      </trkpt>
      <trkpt lat="43.54335" lon="6.25809">
        <ele>237.8</ele>
        <time>2013-11-20T14:08:14Z</time>
      </trkpt>
      <trkpt lat="43.5433" lon="6.25817">
        <ele>238.2</ele>
        <time>2013-11-20T14:08:19Z</time>
      </trkpt>
      <trkpt lat="43.54329" lon="6.25819">
        <ele>237.6</ele>
        <time>2013-11-20T14:08:20Z</time>
      </trkpt>
      <trkpt lat="43.54325" lon="6.25839">
        <ele>239.5</ele>
        <time>2013-11-20T14:08:32Z</time>
      </trkpt>
      <trkpt lat="43.54325" lon="6.25851">
        <ele>239.6</ele>
        <time>2013-11-20T14:08:38Z</time>
      </trkpt>
      <trkpt lat="43.54325" lon="6.25862">
        <ele>239.4</ele>
        <time>2013-11-20T14:08:44Z</time>
      </trkpt>
      <trkpt lat="43.54323" lon="6.25873">
        <ele>239.8</ele>
        <time>2013-11-20T14:08:50Z</time>
      </trkpt>
      <trkpt lat="43.54321" lon="6.25885">
        <ele>240.5</ele>
        <time>2013-11-20T14:09:00Z</time>
      </trkpt>
      <trkpt lat="43.54318" lon="6.25896">
        <ele>240.1</ele>
        <time>2013-11-20T14:09:10Z</time>
      </trkpt>
      <trkpt lat="43.54314" lon="6.25907">
        <ele>239.9</ele>
        <time>2013-11-20T14:09:18Z</time>
      </trkpt>
      <trkpt lat="43.5431" lon="6.25916">
        <ele>239.7</ele>
        <time>2013-11-20T14:09:25Z</time>
      </trkpt>
      <trkpt lat="43.54309" lon="6.25917">
        <ele>239.6</ele>
        <time>2013-11-20T14:09:26Z</time>
      </trkpt>
      <trkpt lat="43.54297" lon="6.2593">
        <ele>238.8</ele>
        <time>2013-11-20T14:09:36Z</time>
      </trkpt>
      <trkpt lat="43.54291" lon="6.25939">
        <ele>238.4</ele>
        <time>2013-11-20T14:09:42Z</time>
      </trkpt>
      <trkpt lat="43.54286" lon="6.25948">
        <ele>239.3</ele>
        <time>2013-11-20T14:09:49Z</time>
      </trkpt>
      <trkpt lat="43.54282" lon="6.25959">
        <ele>239.7</ele>
        <time>2013-11-20T14:09:56Z</time>
      </trkpt>
      <trkpt lat="43.54278" lon="6.25969">
        <ele>239.4</ele>
        <time>2013-11-20T14:10:02Z</time>
      </trkpt>
      <trkpt lat="43.54272" lon="6.25978">
        <ele>240</ele>
        <time>2013-11-20T14:10:08Z</time>
      </trkpt>
      <trkpt lat="43.54268" lon="6.25989">
        <ele>240.5</ele>
        <time>2013-11-20T14:10:16Z</time>
      </trkpt>
      <trkpt lat="43.54266" lon="6.26">
        <ele>241.4</ele>
        <time>2013-11-20T14:10:25Z</time>
      </trkpt>
      <trkpt lat="43.54266" lon="6.26012">
        <ele>242.8</ele>
        <time>2013-11-20T14:10:32Z</time>
      </trkpt>
      <trkpt lat="43.54266" lon="6.26014">
        <ele>243</ele>
        <time>2013-11-20T14:10:33Z</time>
      </trkpt>
      <trkpt lat="43.54268" lon="6.26035">
        <ele>244.7</ele>
        <time>2013-11-20T14:10:46Z</time>
      </trkpt>
      <trkpt lat="43.54269" lon="6.26047">
        <ele>246.1</ele>
        <time>2013-11-20T14:10:54Z</time>
      </trkpt>
      <trkpt lat="43.54271" lon="6.26058">
        <ele>247.1</ele>
        <time>2013-11-20T14:11:02Z</time>
      </trkpt>
      <trkpt lat="43.54274" lon="6.26069">
        <ele>248.8</ele>
        <time>2013-11-20T14:11:10Z</time>
      </trkpt>
      <trkpt lat="43.54278" lon="6.26079">
        <ele>249.9</ele>
        <time>2013-11-20T14:11:18Z</time>
      </trkpt>
      <trkpt lat="43.54283" lon="6.26089">
        <ele>250.5</ele>
        <time>2013-11-20T14:11:26Z</time>
      </trkpt>
      <trkpt lat="43.54289" lon="6.26099">
        <ele>252.2</ele>
        <time>2013-11-20T14:11:35Z</time>
      </trkpt>
      <trkpt lat="43.54289" lon="6.261">
        <ele>252.2</ele>
        <time>2013-11-20T14:11:36Z</time>
      </trkpt>
      <trkpt lat="43.54297" lon="6.2612">
        <ele>255.6</ele>
        <time>2013-11-20T14:11:55Z</time>
      </trkpt>
      <trkpt lat="43.543" lon="6.26131">
        <ele>256.1</ele>
        <time>2013-11-20T14:12:03Z</time>
      </trkpt>
      <trkpt lat="43.54304" lon="6.26141">
        <ele>256.9</ele>
        <time>2013-11-20T14:12:15Z</time>
      </trkpt>
      <trkpt lat="43.54308" lon="6.26151">
        <ele>257.5</ele>
        <time>2013-11-20T14:12:20Z</time>
      </trkpt>
      <trkpt lat="43.54311" lon="6.26161">
        <ele>256.7</ele>
        <time>2013-11-20T14:12:25Z</time>
      </trkpt>
      <trkpt lat="43.54313" lon="6.26172">
        <ele>257.8</ele>
        <time>2013-11-20T14:12:31Z</time>
      </trkpt>
      <trkpt lat="43.54314" lon="6.26183">
        <ele>257.5</ele>
        <time>2013-11-20T14:12:37Z</time>
      </trkpt>
      <trkpt lat="43.54315" lon="6.26185">
        <ele>257.5</ele>
        <time>2013-11-20T14:12:38Z</time>
      </trkpt>
      <trkpt lat="43.54317" lon="6.26206">
        <ele>257.8</ele>
        <time>2013-11-20T14:12:50Z</time>
      </trkpt>
      <trkpt lat="43.54318" lon="6.26218">
        <ele>258.6</ele>
        <time>2013-11-20T14:12:57Z</time>
      </trkpt>
      <trkpt lat="43.54318" lon="6.26228">
        <ele>258.7</ele>
        <time>2013-11-20T14:13:07Z</time>
      </trkpt>
      <trkpt lat="43.5432" lon="6.2624">
        <ele>258.5</ele>
        <time>2013-11-20T14:13:13Z</time>
      </trkpt>
      <trkpt lat="43.54321" lon="6.26252">
        <ele>259.9</ele>
        <time>2013-11-20T14:13:21Z</time>
      </trkpt>
      <trkpt lat="43.54322" lon="6.26264">
        <ele>259.6</ele>
        <time>2013-11-20T14:13:31Z</time>
      </trkpt>
      <trkpt lat="43.54323" lon="6.26276">
        <ele>259.8</ele>
        <time>2013-11-20T14:13:42Z</time>
      </trkpt>
      <trkpt lat="43.54324" lon="6.26277">
        <ele>259.8</ele>
        <time>2013-11-20T14:13:43Z</time>
      </trkpt>
      <trkpt lat="43.54329" lon="6.26299">
        <ele>260</ele>
        <time>2013-11-20T14:13:58Z</time>
      </trkpt>
      <trkpt lat="43.54334" lon="6.26307">
        <ele>260.7</ele>
        <time>2013-11-20T14:14:06Z</time>
      </trkpt>
      <trkpt lat="43.54339" lon="6.26316">
        <ele>260.4</ele>
        <time>2013-11-20T14:14:13Z</time>
      </trkpt>
      <trkpt lat="43.54344" lon="6.26326">
        <ele>261</ele>
        <time>2013-11-20T14:14:22Z</time>
      </trkpt>
      <trkpt lat="43.54344" lon="6.26337">
        <ele>261.2</ele>
        <time>2013-11-20T14:14:38Z</time>
      </trkpt>
      <trkpt lat="43.54342" lon="6.26348">
        <ele>261.4</ele>
        <time>2013-11-20T14:14:47Z</time>
      </trkpt>
      <trkpt lat="43.54342" lon="6.26349">
        <ele>261.7</ele>
        <time>2013-11-20T14:14:48Z</time>
      </trkpt>
      <trkpt lat="43.54342" lon="6.26371">
        <ele>263.5</ele>
        <time>2013-11-20T14:15:04Z</time>
      </trkpt>
      <trkpt lat="43.54341" lon="6.26383">
        <ele>265.2</ele>
        <time>2013-11-20T14:15:09Z</time>
      </trkpt>
      <trkpt lat="43.5434" lon="6.26395">
        <ele>267.1</ele>
        <time>2013-11-20T14:15:18Z</time>
      </trkpt>
      <trkpt lat="43.54333" lon="6.26402">
        <ele>268.3</ele>
        <time>2013-11-20T14:15:38Z</time>
      </trkpt>
      <trkpt lat="43.54336" lon="6.26413">
        <ele>269.7</ele>
        <time>2013-11-20T14:16:45Z</time>
      </trkpt>
      <trkpt lat="43.54336" lon="6.26414">
        <ele>269.8</ele>
        <time>2013-11-20T14:16:46Z</time>
      </trkpt>
      <trkpt lat="43.54337" lon="6.26437">
        <ele>273.2</ele>
        <time>2013-11-20T14:17:35Z</time>
      </trkpt>
      <trkpt lat="43.54338" lon="6.26448">
        <ele>273.8</ele>
        <time>2013-11-20T14:17:55Z</time>
      </trkpt>
      <trkpt lat="43.54338" lon="6.26449">
        <ele>274</ele>
        <time>2013-11-20T14:17:56Z</time>
      </trkpt>
      <trkpt lat="43.54337" lon="6.2646">
        <ele>275.6</ele>
        <time>2013-11-20T14:18:57Z</time>
      </trkpt>
      <trkpt lat="43.54332" lon="6.26464">
        <ele>278.6</ele>
        <time>2013-11-20T14:19:39Z</time>
      </trkpt>
      <trkpt lat="43.54335" lon="6.26475">
        <ele>279.7</ele>
        <time>2013-11-20T14:19:47Z</time>
      </trkpt>
      <trkpt lat="43.5434" lon="6.26484">
        <ele>281.2</ele>
        <time>2013-11-20T14:20:00Z</time>
      </trkpt>
      <trkpt lat="43.54341" lon="6.26485">
        <ele>281.1</ele>
        <time>2013-11-20T14:20:01Z</time>
      </trkpt>
      <trkpt lat="43.54336" lon="6.26507">
        <ele>284</ele>
        <time>2013-11-20T14:20:24Z</time>
      </trkpt>
      <trkpt lat="43.54335" lon="6.26519">
        <ele>286.8</ele>
        <time>2013-11-20T14:20:44Z</time>
      </trkpt>
      <trkpt lat="43.5433" lon="6.26529">
        <ele>289.5</ele>
        <time>2013-11-20T14:20:54Z</time>
      </trkpt>
      <trkpt lat="43.54329" lon="6.26541">
        <ele>291.3</ele>
        <time>2013-11-20T14:21:05Z</time>
      </trkpt>
      <trkpt lat="43.54329" lon="6.26541">
        <ele>291.4</ele>
        <time>2013-11-20T14:21:06Z</time>
      </trkpt>
      <trkpt lat="43.54321" lon="6.26561">
        <ele>298.4</ele>
        <time>2013-11-20T14:21:58Z</time>
      </trkpt>
      <trkpt lat="43.54321" lon="6.26572">
        <ele>301.5</ele>
        <time>2013-11-20T14:22:24Z</time>
      </trkpt>
      <trkpt lat="43.54322" lon="6.26573">
        <ele>301.5</ele>
        <time>2013-11-20T14:22:25Z</time>
      </trkpt>
      <trkpt lat="43.54325" lon="6.26595">
        <ele>306.5</ele>
        <time>2013-11-20T14:22:49Z</time>
      </trkpt>
      <trkpt lat="43.54322" lon="6.26606">
        <ele>310</ele>
        <time>2013-11-20T14:23:08Z</time>
      </trkpt>
      <trkpt lat="43.54324" lon="6.26618">
        <ele>311.2</ele>
        <time>2013-11-20T14:23:19Z</time>
      </trkpt>
      <trkpt lat="43.54327" lon="6.26629">
        <ele>313.4</ele>
        <time>2013-11-20T14:23:36Z</time>
      </trkpt>
      <trkpt lat="43.54327" lon="6.2663">
        <ele>313.7</ele>
        <time>2013-11-20T14:23:37Z</time>
      </trkpt>
      <trkpt lat="43.54324" lon="6.26639">
        <ele>316.6</ele>
        <time>2013-11-20T14:24:05Z</time>
      </trkpt>
      <trkpt lat="43.54315" lon="6.26639">
        <ele>318.7</ele>
        <time>2013-11-20T14:24:17Z</time>
      </trkpt>
      <trkpt lat="43.54309" lon="6.26631">
        <ele>320.6</ele>
        <time>2013-11-20T14:24:28Z</time>
      </trkpt>
      <trkpt lat="43.54303" lon="6.26625">
        <ele>322.5</ele>
        <time>2013-11-20T14:24:37Z</time>
      </trkpt>
      <trkpt lat="43.54302" lon="6.26624">
        <ele>322.6</ele>
        <time>2013-11-20T14:24:38Z</time>
      </trkpt>
      <trkpt lat="43.54302" lon="6.26637">
        <ele>332.6</ele>
        <time>2013-11-20T14:25:39Z</time>
      </trkpt>
      <trkpt lat="43.54297" lon="6.26656">
        <ele>334.6</ele>
        <time>2013-11-20T14:26:04Z</time>
      </trkpt>
      <trkpt lat="43.54295" lon="6.26667">
        <ele>336.8</ele>
        <time>2013-11-20T14:26:26Z</time>
      </trkpt>
      <trkpt lat="43.54297" lon="6.26678">
        <ele>339.2</ele>
        <time>2013-11-20T14:26:45Z</time>
      </trkpt>
      <trkpt lat="43.54298" lon="6.26679">
        <ele>339</ele>
        <time>2013-11-20T14:26:46Z</time>
      </trkpt>
      <trkpt lat="43.54301" lon="6.26702">
        <ele>341.4</ele>
        <time>2013-11-20T14:27:00Z</time>
      </trkpt>
      <trkpt lat="43.54306" lon="6.26712">
        <ele>341.2</ele>
        <time>2013-11-20T14:27:11Z</time>
      </trkpt>
      <trkpt lat="43.54309" lon="6.26724">
        <ele>342.5</ele>
        <time>2013-11-20T14:27:21Z</time>
      </trkpt>
      <trkpt lat="43.54311" lon="6.26734">
        <ele>343.7</ele>
        <time>2013-11-20T14:27:32Z</time>
      </trkpt>
      <trkpt lat="43.54313" lon="6.26746">
        <ele>344.8</ele>
        <time>2013-11-20T14:27:43Z</time>
      </trkpt>
      <trkpt lat="43.54312" lon="6.26758">
        <ele>345.6</ele>
        <time>2013-11-20T14:27:57Z</time>
      </trkpt>
      <trkpt lat="43.54312" lon="6.26759">
        <ele>345.3</ele>
        <time>2013-11-20T14:27:58Z</time>
      </trkpt>
      <trkpt lat="43.54305" lon="6.2678">
        <ele>348.6</ele>
        <time>2013-11-20T14:28:25Z</time>
      </trkpt>
      <trkpt lat="43.54308" lon="6.26791">
        <ele>351.5</ele>
        <time>2013-11-20T14:28:40Z</time>
      </trkpt>
      <trkpt lat="43.543" lon="6.26796">
        <ele>354.3</ele>
        <time>2013-11-20T14:29:10Z</time>
      </trkpt>
      <trkpt lat="43.54299" lon="6.26796">
        <ele>354.4</ele>
        <time>2013-11-20T14:29:11Z</time>
      </trkpt>
      <trkpt lat="43.54285" lon="6.26787">
        <ele>358.6</ele>
        <time>2013-11-20T14:29:32Z</time>
      </trkpt>
      <trkpt lat="43.54278" lon="6.26779">
        <ele>360.3</ele>
        <time>2013-11-20T14:29:45Z</time>
      </trkpt>
      <trkpt lat="43.54272" lon="6.2677">
        <ele>360.5</ele>
        <time>2013-11-20T14:29:52Z</time>
      </trkpt>
      <trkpt lat="43.5427" lon="6.26759">
        <ele>361.3</ele>
        <time>2013-11-20T14:30:01Z</time>
      </trkpt>
      <trkpt lat="43.54264" lon="6.2675">
        <ele>364.7</ele>
        <time>2013-11-20T14:30:18Z</time>
      </trkpt>
      <trkpt lat="43.54263" lon="6.2675">
        <ele>364.9</ele>
        <time>2013-11-20T14:30:19Z</time>
      </trkpt>
      <trkpt lat="43.54256" lon="6.26769">
        <ele>377.9</ele>
        <time>2013-11-20T14:31:25Z</time>
      </trkpt>
      <trkpt lat="43.54256" lon="6.2677">
        <ele>378.1</ele>
        <time>2013-11-20T14:31:26Z</time>
      </trkpt>
      <trkpt lat="43.5425" lon="6.26791">
        <ele>382.4</ele>
        <time>2013-11-20T14:31:52Z</time>
      </trkpt>
      <trkpt lat="43.54247" lon="6.26803">
        <ele>382.3</ele>
        <time>2013-11-20T14:32:06Z</time>
      </trkpt>
      <trkpt lat="43.54249" lon="6.26814">
        <ele>382.8</ele>
        <time>2013-11-20T14:32:24Z</time>
      </trkpt>
      <trkpt lat="43.54253" lon="6.26825">
        <ele>381.5</ele>
        <time>2013-11-20T14:32:31Z</time>
      </trkpt>
      <trkpt lat="43.54254" lon="6.26827">
        <ele>381.4</ele>
        <time>2013-11-20T14:32:32Z</time>
      </trkpt>
      <trkpt lat="43.54261" lon="6.26846">
        <ele>381.4</ele>
        <time>2013-11-20T14:32:48Z</time>
      </trkpt>
      <trkpt lat="43.54261" lon="6.26858">
        <ele>381</ele>
        <time>2013-11-20T14:33:02Z</time>
      </trkpt>
      <trkpt lat="43.54263" lon="6.26868">
        <ele>381.4</ele>
        <time>2013-11-20T14:33:08Z</time>
      </trkpt>
      <trkpt lat="43.54263" lon="6.2688">
        <ele>382</ele>
        <time>2013-11-20T14:33:14Z</time>
      </trkpt>
      <trkpt lat="43.54263" lon="6.26891">
        <ele>381.7</ele>
        <time>2013-11-20T14:33:21Z</time>
      </trkpt>
      <trkpt lat="43.54267" lon="6.26902">
        <ele>382.6</ele>
        <time>2013-11-20T14:33:30Z</time>
      </trkpt>
      <trkpt lat="43.54261" lon="6.26909">
        <ele>385.1</ele>
        <time>2013-11-20T14:33:46Z</time>
      </trkpt>
      <trkpt lat="43.5426" lon="6.2691">
        <ele>385.5</ele>
        <time>2013-11-20T14:33:47Z</time>
      </trkpt>
      <trkpt lat="43.54251" lon="6.26929">
        <ele>390</ele>
        <time>2013-11-20T14:34:15Z</time>
      </trkpt>
      <trkpt lat="43.54243" lon="6.26929">
        <ele>392.2</ele>
        <time>2013-11-20T14:34:28Z</time>
      </trkpt>
      <trkpt lat="43.54238" lon="6.26939">
        <ele>395.4</ele>
        <time>2013-11-20T14:34:46Z</time>
      </trkpt>
      <trkpt lat="43.54237" lon="6.26951">
        <ele>398.5</ele>
        <time>2013-11-20T14:35:06Z</time>
      </trkpt>
      <trkpt lat="43.54237" lon="6.26951">
        <ele>398.9</ele>
        <time>2013-11-20T14:35:07Z</time>
      </trkpt>
      <trkpt lat="43.54225" lon="6.26965">
        <ele>402.5</ele>
        <time>2013-11-20T14:35:27Z</time>
      </trkpt>
      <trkpt lat="43.54218" lon="6.26971">
        <ele>403.8</ele>
        <time>2013-11-20T14:35:35Z</time>
      </trkpt>
      <trkpt lat="43.54212" lon="6.26978">
        <ele>405.7</ele>
        <time>2013-11-20T14:35:46Z</time>
      </trkpt>
      <trkpt lat="43.54204" lon="6.26984">
        <ele>406.9</ele>
        <time>2013-11-20T14:35:57Z</time>
      </trkpt>
      <trkpt lat="43.54197" lon="6.26991">
        <ele>405.3</ele>
        <time>2013-11-20T14:36:15Z</time>
      </trkpt>
      <trkpt lat="43.54197" lon="6.26992">
        <ele>405.2</ele>
        <time>2013-11-20T14:36:16Z</time>
      </trkpt>
      <trkpt lat="43.54188" lon="6.26995">
        <ele>406.5</ele>
        <time>2013-11-20T14:41:30Z</time>
      </trkpt>
      <trkpt lat="43.54198" lon="6.26995">
        <ele>406.2</ele>
        <time>2013-11-20T14:44:21Z</time>
      </trkpt>
      <trkpt lat="43.54198" lon="6.27007">
        <ele>407.3</ele>
        <time>2013-11-20T14:45:30Z</time>
      </trkpt>
      <trkpt lat="43.54193" lon="6.27028">
        <ele>406.4</ele>
        <time>2013-11-20T14:45:46Z</time>
      </trkpt>
      <trkpt lat="43.54187" lon="6.27037">
        <ele>406.1</ele>
        <time>2013-11-20T14:45:54Z</time>
      </trkpt>
      <trkpt lat="43.54181" lon="6.27046">
        <ele>406.1</ele>
        <time>2013-11-20T14:46:04Z</time>
      </trkpt>
      <trkpt lat="43.54178" lon="6.27057">
        <ele>405.8</ele>
        <time>2013-11-20T14:46:12Z</time>
      </trkpt>
      <trkpt lat="43.54175" lon="6.27067">
        <ele>404.3</ele>
        <time>2013-11-20T14:46:19Z</time>
      </trkpt>
      <trkpt lat="43.54173" lon="6.27079">
        <ele>403.4</ele>
        <time>2013-11-20T14:46:29Z</time>
      </trkpt>
      <trkpt lat="43.54171" lon="6.27091">
        <ele>402.2</ele>
        <time>2013-11-20T14:46:37Z</time>
      </trkpt>
      <trkpt lat="43.54171" lon="6.27092">
        <ele>402.2</ele>
        <time>2013-11-20T14:46:38Z</time>
      </trkpt>
      <trkpt lat="43.54169" lon="6.27113">
        <ele>401.1</ele>
        <time>2013-11-20T14:46:50Z</time>
      </trkpt>
      <trkpt lat="43.54164" lon="6.27121">
        <ele>400.8</ele>
        <time>2013-11-20T14:46:56Z</time>
      </trkpt>
      <trkpt lat="43.5416" lon="6.27132">
        <ele>400.3</ele>
        <time>2013-11-20T14:47:03Z</time>
      </trkpt>
      <trkpt lat="43.54153" lon="6.27139">
        <ele>399.9</ele>
        <time>2013-11-20T14:47:10Z</time>
      </trkpt>
      <trkpt lat="43.5415" lon="6.2715">
        <ele>401.2</ele>
        <time>2013-11-20T14:47:17Z</time>
      </trkpt>
      <trkpt lat="43.54149" lon="6.27161">
        <ele>401.5</ele>
        <time>2013-11-20T14:47:24Z</time>
      </trkpt>
      <trkpt lat="43.54144" lon="6.2717">
        <ele>400.9</ele>
        <time>2013-11-20T14:47:33Z</time>
      </trkpt>
      <trkpt lat="43.5414" lon="6.27179">
        <ele>400.3</ele>
        <time>2013-11-20T14:47:40Z</time>
      </trkpt>
      <trkpt lat="43.54139" lon="6.2718">
        <ele>400.1</ele>
        <time>2013-11-20T14:47:41Z</time>
      </trkpt>
      <trkpt lat="43.54134" lon="6.272">
        <ele>399.8</ele>
        <time>2013-11-20T14:47:53Z</time>
      </trkpt>
      <trkpt lat="43.54129" lon="6.2721">
        <ele>400.6</ele>
        <time>2013-11-20T14:47:58Z</time>
      </trkpt>
      <trkpt lat="43.54123" lon="6.27218">
        <ele>400.4</ele>
        <time>2013-11-20T14:48:06Z</time>
      </trkpt>
      <trkpt lat="43.54118" lon="6.27227">
        <ele>401.2</ele>
        <time>2013-11-20T14:48:13Z</time>
      </trkpt>
      <trkpt lat="43.54114" lon="6.27239">
        <ele>402.5</ele>
        <time>2013-11-20T14:48:21Z</time>
      </trkpt>
      <trkpt lat="43.5411" lon="6.27249">
        <ele>402.2</ele>
        <time>2013-11-20T14:48:29Z</time>
      </trkpt>
      <trkpt lat="43.54102" lon="6.27255">
        <ele>401.7</ele>
        <time>2013-11-20T14:48:39Z</time>
      </trkpt>
      <trkpt lat="43.54099" lon="6.27266">
        <ele>403.3</ele>
        <time>2013-11-20T14:48:46Z</time>
      </trkpt>
      <trkpt lat="43.54098" lon="6.27268">
        <ele>403.5</ele>
        <time>2013-11-20T14:48:47Z</time>
      </trkpt>
      <trkpt lat="43.5409" lon="6.27284">
        <ele>404.7</ele>
        <time>2013-11-20T14:49:01Z</time>
      </trkpt>
      <trkpt lat="43.54089" lon="6.27296">
        <ele>405.5</ele>
        <time>2013-11-20T14:49:08Z</time>
      </trkpt>
      <trkpt lat="43.54086" lon="6.27307">
        <ele>406.3</ele>
        <time>2013-11-20T14:49:15Z</time>
      </trkpt>
      <trkpt lat="43.54079" lon="6.27312">
        <ele>407</ele>
        <time>2013-11-20T14:49:21Z</time>
      </trkpt>
      <trkpt lat="43.5407" lon="6.27315">
        <ele>407</ele>
        <time>2013-11-20T14:49:26Z</time>
      </trkpt>
      <trkpt lat="43.54062" lon="6.27319">
        <ele>407.7</ele>
        <time>2013-11-20T14:49:31Z</time>
      </trkpt>
      <trkpt lat="43.54054" lon="6.27326">
        <ele>407.3</ele>
        <time>2013-11-20T14:49:38Z</time>
      </trkpt>
      <trkpt lat="43.54047" lon="6.2733">
        <ele>405.7</ele>
        <time>2013-11-20T14:49:44Z</time>
      </trkpt>
      <trkpt lat="43.54039" lon="6.27334">
        <ele>407.6</ele>
        <time>2013-11-20T14:49:50Z</time>
      </trkpt>
      <trkpt lat="43.54038" lon="6.27335">
        <ele>407.7</ele>
        <time>2013-11-20T14:49:51Z</time>
      </trkpt>
      <trkpt lat="43.54032" lon="6.27356">
        <ele>407.4</ele>
        <time>2013-11-20T14:50:09Z</time>
      </trkpt>
      <trkpt lat="43.54025" lon="6.27365">
        <ele>407.4</ele>
        <time>2013-11-20T14:50:17Z</time>
      </trkpt>
      <trkpt lat="43.54021" lon="6.27375">
        <ele>406.4</ele>
        <time>2013-11-20T14:50:23Z</time>
      </trkpt>
      <trkpt lat="43.54015" lon="6.27382">
        <ele>406.7</ele>
        <time>2013-11-20T14:50:29Z</time>
      </trkpt>
      <trkpt lat="43.54013" lon="6.27392">
        <ele>406.1</ele>
        <time>2013-11-20T14:50:34Z</time>
      </trkpt>
      <trkpt lat="43.5401" lon="6.27403">
        <ele>406.7</ele>
        <time>2013-11-20T14:50:40Z</time>
      </trkpt>
      <trkpt lat="43.54007" lon="6.27413">
        <ele>405.8</ele>
        <time>2013-11-20T14:50:48Z</time>
      </trkpt>
      <trkpt lat="43.54001" lon="6.27421">
        <ele>406.3</ele>
        <time>2013-11-20T14:50:55Z</time>
      </trkpt>
      <trkpt lat="43.54" lon="6.27422">
        <ele>406.4</ele>
        <time>2013-11-20T14:50:56Z</time>
      </trkpt>
      <trkpt lat="43.53989" lon="6.27437">
        <ele>406</ele>
        <time>2013-11-20T14:51:10Z</time>
      </trkpt>
      <trkpt lat="43.53983" lon="6.27444">
        <ele>407.1</ele>
        <time>2013-11-20T14:51:16Z</time>
      </trkpt>
      <trkpt lat="43.53977" lon="6.27453">
        <ele>407.7</ele>
        <time>2013-11-20T14:51:23Z</time>
      </trkpt>
      <trkpt lat="43.53974" lon="6.27465">
        <ele>407.9</ele>
        <time>2013-11-20T14:51:33Z</time>
      </trkpt>
      <trkpt lat="43.53967" lon="6.27472">
        <ele>408</ele>
        <time>2013-11-20T14:51:40Z</time>
      </trkpt>
      <trkpt lat="43.5396" lon="6.27479">
        <ele>408.2</ele>
        <time>2013-11-20T14:51:49Z</time>
      </trkpt>
      <trkpt lat="43.53954" lon="6.27488">
        <ele>409.9</ele>
        <time>2013-11-20T14:51:57Z</time>
      </trkpt>
      <trkpt lat="43.53954" lon="6.27489">
        <ele>410.3</ele>
        <time>2013-11-20T14:51:58Z</time>
      </trkpt>
      <trkpt lat="43.53942" lon="6.27504">
        <ele>411.2</ele>
        <time>2013-11-20T14:52:12Z</time>
      </trkpt>
      <trkpt lat="43.53944" lon="6.27516">
        <ele>412.3</ele>
        <time>2013-11-20T14:52:19Z</time>
      </trkpt>
      <trkpt lat="43.53946" lon="6.27526">
        <ele>410.9</ele>
        <time>2013-11-20T14:52:27Z</time>
      </trkpt>
      <trkpt lat="43.53952" lon="6.27536">
        <ele>412.7</ele>
        <time>2013-11-20T14:52:40Z</time>
      </trkpt>
      <trkpt lat="43.53959" lon="6.27542">
        <ele>412.1</ele>
        <time>2013-11-20T14:52:46Z</time>
      </trkpt>
      <trkpt lat="43.53965" lon="6.2755">
        <ele>412.4</ele>
        <time>2013-11-20T14:52:51Z</time>
      </trkpt>
      <trkpt lat="43.53968" lon="6.2756">
        <ele>412.1</ele>
        <time>2013-11-20T14:52:58Z</time>
      </trkpt>
      <trkpt lat="43.53969" lon="6.27562">
        <ele>411.9</ele>
        <time>2013-11-20T14:52:59Z</time>
      </trkpt>
      <trkpt lat="43.53971" lon="6.27584">
        <ele>410.2</ele>
        <time>2013-11-20T14:53:11Z</time>
      </trkpt>
      <trkpt lat="43.53972" lon="6.27595">
        <ele>410.7</ele>
        <time>2013-11-20T14:53:17Z</time>
      </trkpt>
      <trkpt lat="43.53971" lon="6.27606">
        <ele>410.6</ele>
        <time>2013-11-20T14:53:22Z</time>
      </trkpt>
      <trkpt lat="43.53974" lon="6.27618">
        <ele>408.6</ele>
        <time>2013-11-20T14:53:29Z</time>
      </trkpt>
      <trkpt lat="43.53974" lon="6.2763">
        <ele>408.5</ele>
        <time>2013-11-20T14:53:39Z</time>
      </trkpt>
      <trkpt lat="43.53976" lon="6.27641">
        <ele>408.7</ele>
        <time>2013-11-20T14:53:46Z</time>
      </trkpt>
      <trkpt lat="43.53977" lon="6.27653">
        <ele>408.4</ele>
        <time>2013-11-20T14:53:55Z</time>
      </trkpt>
      <trkpt lat="43.53978" lon="6.27664">
        <ele>408.8</ele>
        <time>2013-11-20T14:54:01Z</time>
      </trkpt>
      <trkpt lat="43.53979" lon="6.27667">
        <ele>409</ele>
        <time>2013-11-20T14:54:02Z</time>
      </trkpt>
      <trkpt lat="43.53979" lon="6.27687">
        <ele>408.2</ele>
        <time>2013-11-20T14:54:15Z</time>
      </trkpt>
      <trkpt lat="43.53977" lon="6.27699">
        <ele>408.1</ele>
        <time>2013-11-20T14:54:21Z</time>
      </trkpt>
      <trkpt lat="43.53977" lon="6.27711">
        <ele>408.1</ele>
        <time>2013-11-20T14:54:29Z</time>
      </trkpt>
      <trkpt lat="43.53978" lon="6.27723">
        <ele>407.5</ele>
        <time>2013-11-20T14:54:35Z</time>
      </trkpt>
      <trkpt lat="43.53975" lon="6.27733">
        <ele>407.7</ele>
        <time>2013-11-20T14:54:45Z</time>
      </trkpt>
      <trkpt lat="43.53973" lon="6.27743">
        <ele>408.1</ele>
        <time>2013-11-20T14:54:53Z</time>
      </trkpt>
      <trkpt lat="43.53971" lon="6.27754">
        <ele>407.2</ele>
        <time>2013-11-20T14:54:59Z</time>
      </trkpt>
      <trkpt lat="43.53972" lon="6.27766">
        <ele>407.5</ele>
        <time>2013-11-20T14:55:04Z</time>
      </trkpt>
      <trkpt lat="43.53972" lon="6.27768">
        <ele>407.4</ele>
        <time>2013-11-20T14:55:05Z</time>
      </trkpt>
      <trkpt lat="43.53971" lon="6.27788">
        <ele>408.6</ele>
        <time>2013-11-20T14:55:15Z</time>
      </trkpt>
      <trkpt lat="43.53973" lon="6.278">
        <ele>409.3</ele>
        <time>2013-11-20T14:55:23Z</time>
      </trkpt>
      <trkpt lat="43.53973" lon="6.27812">
        <ele>410.6</ele>
        <time>2013-11-20T14:55:33Z</time>
      </trkpt>
      <trkpt lat="43.53973" lon="6.27824">
        <ele>410.8</ele>
        <time>2013-11-20T14:55:41Z</time>
      </trkpt>
      <trkpt lat="43.53969" lon="6.27835">
        <ele>411.9</ele>
        <time>2013-11-20T14:55:51Z</time>
      </trkpt>
      <trkpt lat="43.53969" lon="6.27847">
        <ele>411.3</ele>
        <time>2013-11-20T14:55:57Z</time>
      </trkpt>
      <trkpt lat="43.53966" lon="6.27858">
        <ele>411.1</ele>
        <time>2013-11-20T14:56:04Z</time>
      </trkpt>
      <trkpt lat="43.53964" lon="6.27868">
        <ele>411.2</ele>
        <time>2013-11-20T14:56:11Z</time>
      </trkpt>
      <trkpt lat="43.53963" lon="6.2787">
        <ele>411.2</ele>
        <time>2013-11-20T14:56:12Z</time>
      </trkpt>
      <trkpt lat="43.53959" lon="6.27891">
        <ele>412.4</ele>
        <time>2013-11-20T14:56:28Z</time>
      </trkpt>
      <trkpt lat="43.53958" lon="6.27901">
        <ele>412.5</ele>
        <time>2013-11-20T14:56:34Z</time>
      </trkpt>
      <trkpt lat="43.53956" lon="6.27913">
        <ele>411.8</ele>
        <time>2013-11-20T14:56:40Z</time>
      </trkpt>
      <trkpt lat="43.53953" lon="6.27924">
        <ele>412</ele>
        <time>2013-11-20T14:56:45Z</time>
      </trkpt>
      <trkpt lat="43.53951" lon="6.27936">
        <ele>412.6</ele>
        <time>2013-11-20T14:56:53Z</time>
      </trkpt>
      <trkpt lat="43.53947" lon="6.27946">
        <ele>413.1</ele>
        <time>2013-11-20T14:57:00Z</time>
      </trkpt>
      <trkpt lat="43.53944" lon="6.27958">
        <ele>413.4</ele>
        <time>2013-11-20T14:57:08Z</time>
      </trkpt>
      <trkpt lat="43.53944" lon="6.2797">
        <ele>413.8</ele>
        <time>2013-11-20T14:57:15Z</time>
      </trkpt>
      <trkpt lat="43.53944" lon="6.27971">
        <ele>414.2</ele>
        <time>2013-11-20T14:57:16Z</time>
      </trkpt>
      <trkpt lat="43.53945" lon="6.27991">
        <ele>414.9</ele>
        <time>2013-11-20T14:57:27Z</time>
      </trkpt>
      <trkpt lat="43.53942" lon="6.28002">
        <ele>414.7</ele>
        <time>2013-11-20T14:57:35Z</time>
      </trkpt>
      <trkpt lat="43.5394" lon="6.28012">
        <ele>415</ele>
        <time>2013-11-20T14:57:41Z</time>
      </trkpt>
      <trkpt lat="43.53935" lon="6.28021">
        <ele>415.2</ele>
        <time>2013-11-20T14:57:47Z</time>
      </trkpt>
      <trkpt lat="43.53934" lon="6.28031">
        <ele>414.8</ele>
        <time>2013-11-20T14:57:52Z</time>
      </trkpt>
      <trkpt lat="43.53932" lon="6.28043">
        <ele>415</ele>
        <time>2013-11-20T14:57:59Z</time>
      </trkpt>
      <trkpt lat="43.5393" lon="6.28053">
        <ele>414.7</ele>
        <time>2013-11-20T14:58:06Z</time>
      </trkpt>
      <trkpt lat="43.53927" lon="6.28064">
        <ele>414.9</ele>
        <time>2013-11-20T14:58:14Z</time>
      </trkpt>
      <trkpt lat="43.53927" lon="6.28076">
        <ele>414.9</ele>
        <time>2013-11-20T14:58:22Z</time>
      </trkpt>
      <trkpt lat="43.53926" lon="6.28078">
        <ele>414.9</ele>
        <time>2013-11-20T14:58:23Z</time>
      </trkpt>
      <trkpt lat="43.53919" lon="6.28097">
        <ele>415.9</ele>
        <time>2013-11-20T14:58:40Z</time>
      </trkpt>
      <trkpt lat="43.53915" lon="6.28107">
        <ele>415.1</ele>
        <time>2013-11-20T14:58:49Z</time>
      </trkpt>
      <trkpt lat="43.53909" lon="6.28114">
        <ele>413.7</ele>
        <time>2013-11-20T14:58:55Z</time>
      </trkpt>
      <trkpt lat="43.53902" lon="6.28122">
        <ele>414.3</ele>
        <time>2013-11-20T14:59:01Z</time>
      </trkpt>
      <trkpt lat="43.53894" lon="6.28127">
        <ele>412.8</ele>
        <time>2013-11-20T14:59:06Z</time>
      </trkpt>
      <trkpt lat="43.53887" lon="6.28133">
        <ele>410.7</ele>
        <time>2013-11-20T14:59:12Z</time>
      </trkpt>
      <trkpt lat="43.5388" lon="6.28139">
        <ele>410.3</ele>
        <time>2013-11-20T14:59:18Z</time>
      </trkpt>
      <trkpt lat="43.53873" lon="6.28145">
        <ele>408.2</ele>
        <time>2013-11-20T14:59:24Z</time>
      </trkpt>
      <trkpt lat="43.53872" lon="6.28146">
        <ele>407.7</ele>
        <time>2013-11-20T14:59:25Z</time>
      </trkpt>
      <trkpt lat="43.53861" lon="6.28158">
        <ele>409.1</ele>
        <time>2013-11-20T14:59:38Z</time>
      </trkpt>
      <trkpt lat="43.53855" lon="6.28164">
        <ele>408.2</ele>
        <time>2013-11-20T14:59:45Z</time>
      </trkpt>
      <trkpt lat="43.53848" lon="6.28173">
        <ele>408.3</ele>
        <time>2013-11-20T14:59:53Z</time>
      </trkpt>
      <trkpt lat="43.53842" lon="6.2818">
        <ele>409.1</ele>
        <time>2013-11-20T15:00:01Z</time>
      </trkpt>
      <trkpt lat="43.53838" lon="6.2819">
        <ele>409</ele>
        <time>2013-11-20T15:00:08Z</time>
      </trkpt>
      <trkpt lat="43.53832" lon="6.28197">
        <ele>409.1</ele>
        <time>2013-11-20T15:00:14Z</time>
      </trkpt>
      <trkpt lat="43.53829" lon="6.28208">
        <ele>408.2</ele>
        <time>2013-11-20T15:00:23Z</time>
      </trkpt>
      <trkpt lat="43.53825" lon="6.28218">
        <ele>408.1</ele>
        <time>2013-11-20T15:00:29Z</time>
      </trkpt>
      <trkpt lat="43.53825" lon="6.28219">
        <ele>407.3</ele>
        <time>2013-11-20T15:00:30Z</time>
      </trkpt>
      <trkpt lat="43.53821" lon="6.2824">
        <ele>405.9</ele>
        <time>2013-11-20T15:00:43Z</time>
      </trkpt>
      <trkpt lat="43.53816" lon="6.28249">
        <ele>405.8</ele>
        <time>2013-11-20T15:00:51Z</time>
      </trkpt>
      <trkpt lat="43.53811" lon="6.28257">
        <ele>405.9</ele>
        <time>2013-11-20T15:00:56Z</time>
      </trkpt>
      <trkpt lat="43.53809" lon="6.28268">
        <ele>405.6</ele>
        <time>2013-11-20T15:01:02Z</time>
      </trkpt>
      <trkpt lat="43.53806" lon="6.28278">
        <ele>405.5</ele>
        <time>2013-11-20T15:01:08Z</time>
      </trkpt>
      <trkpt lat="43.53801" lon="6.28287">
        <ele>405.4</ele>
        <time>2013-11-20T15:01:13Z</time>
      </trkpt>
      <trkpt lat="43.53795" lon="6.28295">
        <ele>405.8</ele>
        <time>2013-11-20T15:01:20Z</time>
      </trkpt>
      <trkpt lat="43.53794" lon="6.28307">
        <ele>405.4</ele>
        <time>2013-11-20T15:01:28Z</time>
      </trkpt>
      <trkpt lat="43.53787" lon="6.28315">
        <ele>405.1</ele>
        <time>2013-11-20T15:01:38Z</time>
      </trkpt>
      <trkpt lat="43.53786" lon="6.28316">
        <ele>405.2</ele>
        <time>2013-11-20T15:01:39Z</time>
      </trkpt>
      <trkpt lat="43.53786" lon="6.28338">
        <ele>405.7</ele>
        <time>2013-11-20T15:01:59Z</time>
      </trkpt>
      <trkpt lat="43.53784" lon="6.28349">
        <ele>406.1</ele>
        <time>2013-11-20T15:02:08Z</time>
      </trkpt>
      <trkpt lat="43.53784" lon="6.28361">
        <ele>406.7</ele>
        <time>2013-11-20T15:02:18Z</time>
      </trkpt>
      <trkpt lat="43.53787" lon="6.28372">
        <ele>406.3</ele>
        <time>2013-11-20T15:02:24Z</time>
      </trkpt>
      <trkpt lat="43.5379" lon="6.28383">
        <ele>405.8</ele>
        <time>2013-11-20T15:02:30Z</time>
      </trkpt>
      <trkpt lat="43.53793" lon="6.28394">
        <ele>406</ele>
        <time>2013-11-20T15:02:38Z</time>
      </trkpt>
      <trkpt lat="43.53793" lon="6.28406">
        <ele>406.1</ele>
        <time>2013-11-20T15:02:49Z</time>
      </trkpt>
      <trkpt lat="43.53794" lon="6.28407">
        <ele>406</ele>
        <time>2013-11-20T15:02:50Z</time>
      </trkpt>
      <trkpt lat="43.53803" lon="6.28425">
        <ele>404.3</ele>
        <time>2013-11-20T15:03:24Z</time>
      </trkpt>
      <trkpt lat="43.53812" lon="6.28427">
        <ele>404.8</ele>
        <time>2013-11-20T15:03:35Z</time>
      </trkpt>
      <trkpt lat="43.53817" lon="6.28437">
        <ele>405</ele>
        <time>2013-11-20T15:03:47Z</time>
      </trkpt>
      <trkpt lat="43.53824" lon="6.28443">
        <ele>405.3</ele>
        <time>2013-11-20T15:03:57Z</time>
      </trkpt>
      <trkpt lat="43.53824" lon="6.28444">
        <ele>405.3</ele>
        <time>2013-11-20T15:03:58Z</time>
      </trkpt>
      <trkpt lat="43.5384" lon="6.2845">
        <ele>404.2</ele>
        <time>2013-11-20T15:04:18Z</time>
      </trkpt>
      <trkpt lat="43.53848" lon="6.28453">
        <ele>405.4</ele>
        <time>2013-11-20T15:04:26Z</time>
      </trkpt>
      <trkpt lat="43.53856" lon="6.28453">
        <ele>405.1</ele>
        <time>2013-11-20T15:04:36Z</time>
      </trkpt>
      <trkpt lat="43.53864" lon="6.28455">
        <ele>404.4</ele>
        <time>2013-11-20T15:04:44Z</time>
      </trkpt>
      <trkpt lat="43.53872" lon="6.28459">
        <ele>405.9</ele>
        <time>2013-11-20T15:04:52Z</time>
      </trkpt>
      <trkpt lat="43.5388" lon="6.28463">
        <ele>404.8</ele>
        <time>2013-11-20T15:05:02Z</time>
      </trkpt>
      <trkpt lat="43.53881" lon="6.28463">
        <ele>404.6</ele>
        <time>2013-11-20T15:05:03Z</time>
      </trkpt>
      <trkpt lat="43.53895" lon="6.28473">
        <ele>403.8</ele>
        <time>2013-11-20T15:05:15Z</time>
      </trkpt>
      <trkpt lat="43.53903" lon="6.28476">
        <ele>404.1</ele>
        <time>2013-11-20T15:05:24Z</time>
      </trkpt>
      <trkpt lat="43.53911" lon="6.2848">
        <ele>404</ele>
        <time>2013-11-20T15:05:31Z</time>
      </trkpt>
      <trkpt lat="43.5392" lon="6.28482">
        <ele>403.5</ele>
        <time>2013-11-20T15:05:40Z</time>
      </trkpt>
      <trkpt lat="43.53928" lon="6.28486">
        <ele>404</ele>
        <time>2013-11-20T15:05:50Z</time>
      </trkpt>
      <trkpt lat="43.53935" lon="6.28492">
        <ele>404.2</ele>
        <time>2013-11-20T15:05:58Z</time>
      </trkpt>
      <trkpt lat="43.53944" lon="6.28495">
        <ele>404.1</ele>
        <time>2013-11-20T15:06:06Z</time>
      </trkpt>
      <trkpt lat="43.53945" lon="6.28496">
        <ele>404.5</ele>
        <time>2013-11-20T15:06:07Z</time>
      </trkpt>
      <trkpt lat="43.53959" lon="6.28506">
        <ele>404.8</ele>
        <time>2013-11-20T15:06:21Z</time>
      </trkpt>
      <trkpt lat="43.53967" lon="6.28511">
        <ele>404.8</ele>
        <time>2013-11-20T15:06:33Z</time>
      </trkpt>
      <trkpt lat="43.53973" lon="6.28518">
        <ele>405</ele>
        <time>2013-11-20T15:06:40Z</time>
      </trkpt>
      <trkpt lat="43.53979" lon="6.28526">
        <ele>405.1</ele>
        <time>2013-11-20T15:06:45Z</time>
      </trkpt>
      <trkpt lat="43.53985" lon="6.28534">
        <ele>404.6</ele>
        <time>2013-11-20T15:06:50Z</time>
      </trkpt>
      <trkpt lat="43.5399" lon="6.28542">
        <ele>403.2</ele>
        <time>2013-11-20T15:06:55Z</time>
      </trkpt>
      <trkpt lat="43.53997" lon="6.28549">
        <ele>402.8</ele>
        <time>2013-11-20T15:07:02Z</time>
      </trkpt>
      <trkpt lat="43.54005" lon="6.28554">
        <ele>402</ele>
        <time>2013-11-20T15:07:09Z</time>
      </trkpt>
      <trkpt lat="43.54006" lon="6.28555">
        <ele>402</ele>
        <time>2013-11-20T15:07:10Z</time>
      </trkpt>
      <trkpt lat="43.54018" lon="6.28566">
        <ele>402.8</ele>
        <time>2013-11-20T15:07:24Z</time>
      </trkpt>
      <trkpt lat="43.54024" lon="6.28575">
        <ele>402.9</ele>
        <time>2013-11-20T15:07:33Z</time>
      </trkpt>
      <trkpt lat="43.5403" lon="6.28583">
        <ele>402.4</ele>
        <time>2013-11-20T15:07:39Z</time>
      </trkpt>
      <trkpt lat="43.54034" lon="6.28592">
        <ele>402.2</ele>
        <time>2013-11-20T15:07:44Z</time>
      </trkpt>
      <trkpt lat="43.54039" lon="6.28603">
        <ele>402.1</ele>
        <time>2013-11-20T15:07:50Z</time>
      </trkpt>
      <trkpt lat="43.5404" lon="6.28615">
        <ele>402.1</ele>
        <time>2013-11-20T15:07:58Z</time>
      </trkpt>
      <trkpt lat="43.5404" lon="6.28626">
        <ele>403.4</ele>
        <time>2013-11-20T15:08:06Z</time>
      </trkpt>
      <trkpt lat="43.54041" lon="6.28638">
        <ele>403.2</ele>
        <time>2013-11-20T15:08:15Z</time>
      </trkpt>
      <trkpt lat="43.54041" lon="6.28639">
        <ele>403.4</ele>
        <time>2013-11-20T15:08:16Z</time>
      </trkpt>
      <trkpt lat="43.54033" lon="6.28658">
        <ele>403.2</ele>
        <time>2013-11-20T15:08:31Z</time>
      </trkpt>
      <trkpt lat="43.5403" lon="6.2867">
        <ele>403.9</ele>
        <time>2013-11-20T15:08:39Z</time>
      </trkpt>
      <trkpt lat="43.54025" lon="6.28679">
        <ele>403.2</ele>
        <time>2013-11-20T15:08:46Z</time>
      </trkpt>
      <trkpt lat="43.5402" lon="6.28689">
        <ele>403.2</ele>
        <time>2013-11-20T15:08:56Z</time>
      </trkpt>
      <trkpt lat="43.54021" lon="6.28702">
        <ele>403.1</ele>
        <time>2013-11-20T15:09:05Z</time>
      </trkpt>
      <trkpt lat="43.54018" lon="6.28712">
        <ele>402.9</ele>
        <time>2013-11-20T15:09:14Z</time>
      </trkpt>
      <trkpt lat="43.54018" lon="6.28724">
        <ele>401.4</ele>
        <time>2013-11-20T15:09:20Z</time>
      </trkpt>
      <trkpt lat="43.54018" lon="6.28725">
        <ele>401.6</ele>
        <time>2013-11-20T15:09:21Z</time>
      </trkpt>
      <trkpt lat="43.54007" lon="6.28742">
        <ele>400.9</ele>
        <time>2013-11-20T15:09:34Z</time>
      </trkpt>
      <trkpt lat="43.54" lon="6.28748">
        <ele>400.8</ele>
        <time>2013-11-20T15:09:39Z</time>
      </trkpt>
      <trkpt lat="43.53993" lon="6.28752">
        <ele>401</ele>
        <time>2013-11-20T15:09:44Z</time>
      </trkpt>
      <trkpt lat="43.53985" lon="6.28756">
        <ele>400.5</ele>
        <time>2013-11-20T15:09:50Z</time>
      </trkpt>
      <trkpt lat="43.53978" lon="6.28764">
        <ele>400.3</ele>
        <time>2013-11-20T15:09:58Z</time>
      </trkpt>
      <trkpt lat="43.53971" lon="6.28771">
        <ele>399.9</ele>
        <time>2013-11-20T15:10:06Z</time>
      </trkpt>
      <trkpt lat="43.53963" lon="6.28775">
        <ele>399.5</ele>
        <time>2013-11-20T15:10:15Z</time>
      </trkpt>
      <trkpt lat="43.53956" lon="6.28778">
        <ele>399.4</ele>
        <time>2013-11-20T15:10:22Z</time>
      </trkpt>
      <trkpt lat="43.53955" lon="6.28779">
        <ele>399.2</ele>
        <time>2013-11-20T15:10:23Z</time>
      </trkpt>
      <trkpt lat="43.53939" lon="6.28779">
        <ele>398.7</ele>
        <time>2013-11-20T15:10:35Z</time>
      </trkpt>
      <trkpt lat="43.53931" lon="6.28781">
        <ele>398.3</ele>
        <time>2013-11-20T15:10:41Z</time>
      </trkpt>
      <trkpt lat="43.53923" lon="6.28785">
        <ele>398</ele>
        <time>2013-11-20T15:10:48Z</time>
      </trkpt>
      <trkpt lat="43.53916" lon="6.2879">
        <ele>397.3</ele>
        <time>2013-11-20T15:10:57Z</time>
      </trkpt>
      <trkpt lat="43.53908" lon="6.28793">
        <ele>397.4</ele>
        <time>2013-11-20T15:11:03Z</time>
      </trkpt>
      <trkpt lat="43.539" lon="6.28797">
        <ele>397.2</ele>
        <time>2013-11-20T15:11:11Z</time>
      </trkpt>
      <trkpt lat="43.53892" lon="6.28799">
        <ele>397.1</ele>
        <time>2013-11-20T15:11:18Z</time>
      </trkpt>
      <trkpt lat="43.53884" lon="6.288">
        <ele>395.8</ele>
        <time>2013-11-20T15:11:24Z</time>
      </trkpt>
      <trkpt lat="43.53882" lon="6.288">
        <ele>395.9</ele>
        <time>2013-11-20T15:11:25Z</time>
      </trkpt>
      <trkpt lat="43.53868" lon="6.28801">
        <ele>394.9</ele>
        <time>2013-11-20T15:11:37Z</time>
      </trkpt>
      <trkpt lat="43.53859" lon="6.28802">
        <ele>394.1</ele>
        <time>2013-11-20T15:11:45Z</time>
      </trkpt>
      <trkpt lat="43.53852" lon="6.28802">
        <ele>394.6</ele>
        <time>2013-11-20T15:11:52Z</time>
      </trkpt>
      <trkpt lat="43.53843" lon="6.28802">
        <ele>393.6</ele>
        <time>2013-11-20T15:11:59Z</time>
      </trkpt>
      <trkpt lat="43.53835" lon="6.28801">
        <ele>393.1</ele>
        <time>2013-11-20T15:12:05Z</time>
      </trkpt>
      <trkpt lat="43.53826" lon="6.288">
        <ele>393.4</ele>
        <time>2013-11-20T15:12:11Z</time>
      </trkpt>
      <trkpt lat="43.53818" lon="6.28799">
        <ele>392.8</ele>
        <time>2013-11-20T15:12:18Z</time>
      </trkpt>
      <trkpt lat="43.5381" lon="6.28794">
        <ele>391</ele>
        <time>2013-11-20T15:12:27Z</time>
      </trkpt>
      <trkpt lat="43.53809" lon="6.28793">
        <ele>391.1</ele>
        <time>2013-11-20T15:12:28Z</time>
      </trkpt>
      <trkpt lat="43.53795" lon="6.28787">
        <ele>390.5</ele>
        <time>2013-11-20T15:12:41Z</time>
      </trkpt>
      <trkpt lat="43.53786" lon="6.28785">
        <ele>389.3</ele>
        <time>2013-11-20T15:12:48Z</time>
      </trkpt>
      <trkpt lat="43.53779" lon="6.28782">
        <ele>388.5</ele>
        <time>2013-11-20T15:12:54Z</time>
      </trkpt>
      <trkpt lat="43.5377" lon="6.28782">
        <ele>388.5</ele>
        <time>2013-11-20T15:13:02Z</time>
      </trkpt>
      <trkpt lat="43.53762" lon="6.28778">
        <ele>388.8</ele>
        <time>2013-11-20T15:13:10Z</time>
      </trkpt>
      <trkpt lat="43.53754" lon="6.28783">
        <ele>388.7</ele>
        <time>2013-11-20T15:13:22Z</time>
      </trkpt>
      <trkpt lat="43.53749" lon="6.28792">
        <ele>388</ele>
        <time>2013-11-20T15:13:33Z</time>
      </trkpt>
      <trkpt lat="43.53749" lon="6.28793">
        <ele>388.2</ele>
        <time>2013-11-20T15:13:34Z</time>
      </trkpt>
      <trkpt lat="43.53741" lon="6.28812">
        <ele>388.8</ele>
        <time>2013-11-20T15:13:54Z</time>
      </trkpt>
      <trkpt lat="43.53735" lon="6.2882">
        <ele>388.4</ele>
        <time>2013-11-20T15:13:59Z</time>
      </trkpt>
      <trkpt lat="43.5373" lon="6.2883">
        <ele>386.6</ele>
        <time>2013-11-20T15:14:05Z</time>
      </trkpt>
      <trkpt lat="43.53726" lon="6.2884">
        <ele>387.4</ele>
        <time>2013-11-20T15:14:13Z</time>
      </trkpt>
      <trkpt lat="43.53723" lon="6.28852">
        <ele>387.3</ele>
        <time>2013-11-20T15:14:19Z</time>
      </trkpt>
      <trkpt lat="43.5372" lon="6.28863">
        <ele>387</ele>
        <time>2013-11-20T15:14:26Z</time>
      </trkpt>
      <trkpt lat="43.53715" lon="6.28873">
        <ele>386.9</ele>
        <time>2013-11-20T15:14:51Z</time>
      </trkpt>
      <trkpt lat="43.53714" lon="6.28873">
        <ele>386.7</ele>
        <time>2013-11-20T15:14:52Z</time>
      </trkpt>
      <trkpt lat="43.53715" lon="6.28884">
        <ele>387.7</ele>
        <time>2013-11-20T15:17:23Z</time>
      </trkpt>
      <trkpt lat="43.53716" lon="6.28884">
        <ele>387.7</ele>
        <time>2013-11-20T15:17:24Z</time>
      </trkpt>
      <trkpt lat="43.53732" lon="6.28888">
        <ele>391</ele>
        <time>2013-11-20T15:18:04Z</time>
      </trkpt>
      <trkpt lat="43.53739" lon="6.28896">
        <ele>391.6</ele>
        <time>2013-11-20T15:18:26Z</time>
      </trkpt>
      <trkpt lat="43.5374" lon="6.28897">
        <ele>391.4</ele>
        <time>2013-11-20T15:18:27Z</time>
      </trkpt>
      <trkpt lat="43.53748" lon="6.28916">
        <ele>390.5</ele>
        <time>2013-11-20T15:19:00Z</time>
      </trkpt>
      <trkpt lat="43.53749" lon="6.28928">
        <ele>388.4</ele>
        <time>2013-11-20T15:19:15Z</time>
      </trkpt>
      <trkpt lat="43.53743" lon="6.28937">
        <ele>388.5</ele>
        <time>2013-11-20T15:19:34Z</time>
      </trkpt>
      <trkpt lat="43.53742" lon="6.28937">
        <ele>388.5</ele>
        <time>2013-11-20T15:19:35Z</time>
      </trkpt>
      <trkpt lat="43.5373" lon="6.28943">
        <ele>387.1</ele>
        <time>2013-11-20T15:23:19Z</time>
      </trkpt>
      <trkpt lat="43.53729" lon="6.28942">
        <ele>387.1</ele>
        <time>2013-11-20T15:23:20Z</time>
      </trkpt>
      <trkpt lat="43.53717" lon="6.28929">
        <ele>386.3</ele>
        <time>2013-11-20T15:23:42Z</time>
      </trkpt>
      <trkpt lat="43.53708" lon="6.28925">
        <ele>384.3</ele>
        <time>2013-11-20T15:23:57Z</time>
      </trkpt>
      <trkpt lat="43.53699" lon="6.28927">
        <ele>383.7</ele>
        <time>2013-11-20T15:24:05Z</time>
      </trkpt>
      <trkpt lat="43.53691" lon="6.28927">
        <ele>383.2</ele>
        <time>2013-11-20T15:24:33Z</time>
      </trkpt>
      <trkpt lat="43.5369" lon="6.28927">
        <ele>383.2</ele>
        <time>2013-11-20T15:24:34Z</time>
      </trkpt>
      <trkpt lat="43.53676" lon="6.28938">
        <ele>378.8</ele>
        <time>2013-11-20T15:25:22Z</time>
      </trkpt>
      <trkpt lat="43.53669" lon="6.28933">
        <ele>378</ele>
        <time>2013-11-20T15:25:31Z</time>
      </trkpt>
      <trkpt lat="43.53661" lon="6.28927">
        <ele>376.9</ele>
        <time>2013-11-20T15:25:40Z</time>
      </trkpt>
      <trkpt lat="43.53661" lon="6.28926">
        <ele>376.7</ele>
        <time>2013-11-20T15:25:41Z</time>
      </trkpt>
      <trkpt lat="43.5365" lon="6.28908">
        <ele>374.3</ele>
        <time>2013-11-20T15:25:58Z</time>
      </trkpt>
      <trkpt lat="43.53643" lon="6.28901">
        <ele>372.8</ele>
        <time>2013-11-20T15:26:12Z</time>
      </trkpt>
      <trkpt lat="43.53637" lon="6.28892">
        <ele>372.7</ele>
        <time>2013-11-20T15:26:20Z</time>
      </trkpt>
      <trkpt lat="43.53632" lon="6.28882">
        <ele>371.3</ele>
        <time>2013-11-20T15:26:29Z</time>
      </trkpt>
      <trkpt lat="43.53628" lon="6.28873">
        <ele>371.6</ele>
        <time>2013-11-20T15:26:37Z</time>
      </trkpt>
      <trkpt lat="43.53626" lon="6.28862">
        <ele>369.5</ele>
        <time>2013-11-20T15:26:42Z</time>
      </trkpt>
      <trkpt lat="43.53626" lon="6.28861">
        <ele>369.6</ele>
        <time>2013-11-20T15:26:43Z</time>
      </trkpt>
      <trkpt lat="43.53621" lon="6.28841">
        <ele>368.4</ele>
        <time>2013-11-20T15:26:57Z</time>
      </trkpt>
      <trkpt lat="43.53616" lon="6.28831">
        <ele>367.6</ele>
        <time>2013-11-20T15:27:06Z</time>
      </trkpt>
      <trkpt lat="43.53612" lon="6.2882">
        <ele>367.4</ele>
        <time>2013-11-20T15:29:04Z</time>
      </trkpt>
      <trkpt lat="43.53611" lon="6.28819">
        <ele>367.5</ele>
        <time>2013-11-20T15:29:05Z</time>
      </trkpt>
      <trkpt lat="43.536" lon="6.28804">
        <ele>366.9</ele>
        <time>2013-11-20T15:29:21Z</time>
      </trkpt>
      <trkpt lat="43.53596" lon="6.28793">
        <ele>366.5</ele>
        <time>2013-11-20T15:29:29Z</time>
      </trkpt>
      <trkpt lat="43.53591" lon="6.28783">
        <ele>366.8</ele>
        <time>2013-11-20T15:29:37Z</time>
      </trkpt>
      <trkpt lat="43.53588" lon="6.28772">
        <ele>366.7</ele>
        <time>2013-11-20T15:29:44Z</time>
      </trkpt>
      <trkpt lat="43.53584" lon="6.28761">
        <ele>366.3</ele>
        <time>2013-11-20T15:29:51Z</time>
      </trkpt>
      <trkpt lat="43.5358" lon="6.28751">
        <ele>365.2</ele>
        <time>2013-11-20T15:29:58Z</time>
      </trkpt>
      <trkpt lat="43.53576" lon="6.28741">
        <ele>364</ele>
        <time>2013-11-20T15:30:06Z</time>
      </trkpt>
      <trkpt lat="43.53576" lon="6.2874">
        <ele>363.4</ele>
        <time>2013-11-20T15:30:07Z</time>
      </trkpt>
      <trkpt lat="43.53567" lon="6.28722">
        <ele>362.5</ele>
        <time>2013-11-20T15:30:24Z</time>
      </trkpt>
      <trkpt lat="43.53563" lon="6.28712">
        <ele>360.9</ele>
        <time>2013-11-20T15:30:32Z</time>
      </trkpt>
      <trkpt lat="43.53558" lon="6.28702">
        <ele>359.7</ele>
        <time>2013-11-20T15:30:39Z</time>
      </trkpt>
      <trkpt lat="43.53558" lon="6.2869">
        <ele>359.6</ele>
        <time>2013-11-20T15:30:55Z</time>
      </trkpt>
      <trkpt lat="43.53563" lon="6.28681">
        <ele>360.8</ele>
        <time>2013-11-20T15:31:05Z</time>
      </trkpt>
      <trkpt lat="43.53568" lon="6.28673">
        <ele>361.6</ele>
        <time>2013-11-20T15:31:13Z</time>
      </trkpt>
      <trkpt lat="43.5357" lon="6.28671">
        <ele>361.7</ele>
        <time>2013-11-20T15:31:14Z</time>
      </trkpt>
      <trkpt lat="43.53581" lon="6.28658">
        <ele>361.7</ele>
        <time>2013-11-20T15:31:27Z</time>
      </trkpt>
      <trkpt lat="43.53586" lon="6.28648">
        <ele>361.9</ele>
        <time>2013-11-20T15:31:34Z</time>
      </trkpt>
      <trkpt lat="43.53592" lon="6.28639">
        <ele>362.8</ele>
        <time>2013-11-20T15:31:44Z</time>
      </trkpt>
      <trkpt lat="43.53589" lon="6.2865">
        <ele>361.1</ele>
        <time>2013-11-20T15:32:26Z</time>
      </trkpt>
      <trkpt lat="43.53588" lon="6.28651">
        <ele>361</ele>
        <time>2013-11-20T15:32:27Z</time>
      </trkpt>
      <trkpt lat="43.53578" lon="6.28668">
        <ele>360.4</ele>
        <time>2013-11-20T15:32:43Z</time>
      </trkpt>
      <trkpt lat="43.53572" lon="6.28676">
        <ele>360.3</ele>
        <time>2013-11-20T15:32:50Z</time>
      </trkpt>
      <trkpt lat="43.53566" lon="6.28684">
        <ele>359.9</ele>
        <time>2013-11-20T15:32:57Z</time>
      </trkpt>
      <trkpt lat="43.53559" lon="6.2869">
        <ele>359.6</ele>
        <time>2013-11-20T15:33:08Z</time>
      </trkpt>
      <trkpt lat="43.53551" lon="6.28686">
        <ele>359.4</ele>
        <time>2013-11-20T15:33:21Z</time>
      </trkpt>
      <trkpt lat="43.53543" lon="6.28679">
        <ele>359.1</ele>
        <time>2013-11-20T15:33:32Z</time>
      </trkpt>
      <trkpt lat="43.53543" lon="6.28679">
        <ele>358.9</ele>
        <time>2013-11-20T15:33:33Z</time>
      </trkpt>
      <trkpt lat="43.5353" lon="6.28666">
        <ele>357</ele>
        <time>2013-11-20T15:33:53Z</time>
      </trkpt>
      <trkpt lat="43.53523" lon="6.28659">
        <ele>355.9</ele>
        <time>2013-11-20T15:34:01Z</time>
      </trkpt>
      <trkpt lat="43.53517" lon="6.28653">
        <ele>355.1</ele>
        <time>2013-11-20T15:34:08Z</time>
      </trkpt>
      <trkpt lat="43.53509" lon="6.28647">
        <ele>353.9</ele>
        <time>2013-11-20T15:34:15Z</time>
      </trkpt>
      <trkpt lat="43.53501" lon="6.28642">
        <ele>352</ele>
        <time>2013-11-20T15:34:23Z</time>
      </trkpt>
      <trkpt lat="43.53494" lon="6.28636">
        <ele>350.8</ele>
        <time>2013-11-20T15:34:35Z</time>
      </trkpt>
      <trkpt lat="43.53493" lon="6.28636">
        <ele>350.8</ele>
        <time>2013-11-20T15:34:36Z</time>
      </trkpt>
      <trkpt lat="43.53477" lon="6.28639">
        <ele>349.3</ele>
        <time>2013-11-20T15:34:54Z</time>
      </trkpt>
      <trkpt lat="43.53468" lon="6.28643">
        <ele>348.3</ele>
        <time>2013-11-20T15:35:03Z</time>
      </trkpt>
      <trkpt lat="43.53461" lon="6.28649">
        <ele>347</ele>
        <time>2013-11-20T15:35:11Z</time>
      </trkpt>
      <trkpt lat="43.53454" lon="6.28653">
        <ele>346.3</ele>
        <time>2013-11-20T15:35:18Z</time>
      </trkpt>
      <trkpt lat="43.53445" lon="6.28657">
        <ele>344.7</ele>
        <time>2013-11-20T15:35:26Z</time>
      </trkpt>
      <trkpt lat="43.53438" lon="6.2866">
        <ele>343.8</ele>
        <time>2013-11-20T15:35:33Z</time>
      </trkpt>
      <trkpt lat="43.53429" lon="6.28664">
        <ele>341.8</ele>
        <time>2013-11-20T15:35:41Z</time>
      </trkpt>
      <trkpt lat="43.53428" lon="6.28665">
        <ele>341.8</ele>
        <time>2013-11-20T15:35:42Z</time>
      </trkpt>
      <trkpt lat="43.53414" lon="6.28675">
        <ele>340.9</ele>
        <time>2013-11-20T15:35:55Z</time>
      </trkpt>
      <trkpt lat="43.53407" lon="6.28679">
        <ele>338.5</ele>
        <time>2013-11-20T15:36:01Z</time>
      </trkpt>
      <trkpt lat="43.534" lon="6.28684">
        <ele>338.8</ele>
        <time>2013-11-20T15:36:07Z</time>
      </trkpt>
      <trkpt lat="43.53392" lon="6.28689">
        <ele>339.7</ele>
        <time>2013-11-20T15:36:13Z</time>
      </trkpt>
      <trkpt lat="43.53384" lon="6.28692">
        <ele>337.2</ele>
        <time>2013-11-20T15:36:20Z</time>
      </trkpt>
      <trkpt lat="43.53376" lon="6.28695">
        <ele>337.5</ele>
        <time>2013-11-20T15:36:26Z</time>
      </trkpt>
      <trkpt lat="43.53368" lon="6.28699">
        <ele>337.4</ele>
        <time>2013-11-20T15:36:32Z</time>
      </trkpt>
      <trkpt lat="43.5336" lon="6.28703">
        <ele>336.4</ele>
        <time>2013-11-20T15:36:38Z</time>
      </trkpt>
      <trkpt lat="43.53352" lon="6.28707">
        <ele>335.5</ele>
        <time>2013-11-20T15:36:45Z</time>
      </trkpt>
      <trkpt lat="43.53351" lon="6.28708">
        <ele>335.3</ele>
        <time>2013-11-20T15:36:46Z</time>
      </trkpt>
      <trkpt lat="43.53336" lon="6.28716">
        <ele>335.6</ele>
        <time>2013-11-20T15:36:58Z</time>
      </trkpt>
      <trkpt lat="43.53329" lon="6.28721">
        <ele>335.4</ele>
        <time>2013-11-20T15:37:05Z</time>
      </trkpt>
      <trkpt lat="43.5332" lon="6.28726">
        <ele>333.2</ele>
        <time>2013-11-20T15:37:12Z</time>
      </trkpt>
      <trkpt lat="43.53313" lon="6.28729">
        <ele>333.3</ele>
        <time>2013-11-20T15:37:18Z</time>
      </trkpt>
      <trkpt lat="43.53305" lon="6.28734">
        <ele>333.6</ele>
        <time>2013-11-20T15:37:25Z</time>
      </trkpt>
      <trkpt lat="43.53297" lon="6.28739">
        <ele>332.8</ele>
        <time>2013-11-20T15:37:32Z</time>
      </trkpt>
      <trkpt lat="43.53289" lon="6.2874">
        <ele>331.9</ele>
        <time>2013-11-20T15:37:38Z</time>
      </trkpt>
      <trkpt lat="43.53281" lon="6.28737">
        <ele>330</ele>
        <time>2013-11-20T15:37:46Z</time>
      </trkpt>
      <trkpt lat="43.5328" lon="6.28736">
        <ele>330.2</ele>
        <time>2013-11-20T15:37:47Z</time>
      </trkpt>
      <trkpt lat="43.53265" lon="6.28728">
        <ele>328.9</ele>
        <time>2013-11-20T15:37:59Z</time>
      </trkpt>
      <trkpt lat="43.53256" lon="6.28725">
        <ele>329.6</ele>
        <time>2013-11-20T15:38:06Z</time>
      </trkpt>
      <trkpt lat="43.53249" lon="6.28721">
        <ele>328.6</ele>
        <time>2013-11-20T15:38:12Z</time>
      </trkpt>
      <trkpt lat="43.53241" lon="6.28717">
        <ele>328.3</ele>
        <time>2013-11-20T15:38:18Z</time>
      </trkpt>
      <trkpt lat="43.53233" lon="6.28712">
        <ele>328.6</ele>
        <time>2013-11-20T15:38:25Z</time>
      </trkpt>
      <trkpt lat="43.53226" lon="6.28706">
        <ele>327.3</ele>
        <time>2013-11-20T15:38:32Z</time>
      </trkpt>
      <trkpt lat="43.53218" lon="6.287">
        <ele>327.2</ele>
        <time>2013-11-20T15:38:39Z</time>
      </trkpt>
      <trkpt lat="43.53211" lon="6.28696">
        <ele>326.2</ele>
        <time>2013-11-20T15:38:46Z</time>
      </trkpt>
      <trkpt lat="43.53204" lon="6.28693">
        <ele>325.9</ele>
        <time>2013-11-20T15:38:53Z</time>
      </trkpt>
      <trkpt lat="43.53202" lon="6.28693">
        <ele>325.4</ele>
        <time>2013-11-20T15:38:54Z</time>
      </trkpt>
      <trkpt lat="43.53187" lon="6.28686">
        <ele>325.4</ele>
        <time>2013-11-20T15:39:07Z</time>
      </trkpt>
      <trkpt lat="43.53179" lon="6.28683">
        <ele>323.6</ele>
        <time>2013-11-20T15:39:14Z</time>
      </trkpt>
      <trkpt lat="43.53171" lon="6.28681">
        <ele>322.8</ele>
        <time>2013-11-20T15:39:20Z</time>
      </trkpt>
      <trkpt lat="43.53164" lon="6.28677">
        <ele>322.8</ele>
        <time>2013-11-20T15:39:26Z</time>
      </trkpt>
      <trkpt lat="43.53157" lon="6.28673">
        <ele>322.8</ele>
        <time>2013-11-20T15:39:32Z</time>
      </trkpt>
      <trkpt lat="43.53149" lon="6.28669">
        <ele>321.8</ele>
        <time>2013-11-20T15:39:38Z</time>
      </trkpt>
      <trkpt lat="43.53141" lon="6.28667">
        <ele>320.8</ele>
        <time>2013-11-20T15:39:45Z</time>
      </trkpt>
      <trkpt lat="43.53133" lon="6.28664">
        <ele>320</ele>
        <time>2013-11-20T15:39:52Z</time>
      </trkpt>
      <trkpt lat="43.53124" lon="6.28664">
        <ele>320.2</ele>
        <time>2013-11-20T15:40:00Z</time>
      </trkpt>
      <trkpt lat="43.53124" lon="6.28664">
        <ele>320.3</ele>
        <time>2013-11-20T15:40:01Z</time>
      </trkpt>
      <trkpt lat="43.53108" lon="6.28666">
        <ele>319.6</ele>
        <time>2013-11-20T15:40:15Z</time>
      </trkpt>
      <trkpt lat="43.53099" lon="6.28666">
        <ele>318.8</ele>
        <time>2013-11-20T15:40:23Z</time>
      </trkpt>
      <trkpt lat="43.53091" lon="6.28664">
        <ele>317.8</ele>
        <time>2013-11-20T15:40:31Z</time>
      </trkpt>
      <trkpt lat="43.53083" lon="6.2866">
        <ele>317.1</ele>
        <time>2013-11-20T15:40:36Z</time>
      </trkpt>
      <trkpt lat="43.53076" lon="6.28655">
        <ele>316.7</ele>
        <time>2013-11-20T15:40:41Z</time>
      </trkpt>
      <trkpt lat="43.53068" lon="6.28649">
        <ele>316.6</ele>
        <time>2013-11-20T15:40:47Z</time>
      </trkpt>
      <trkpt lat="43.53061" lon="6.28643">
        <ele>315.7</ele>
        <time>2013-11-20T15:40:53Z</time>
      </trkpt>
      <trkpt lat="43.53054" lon="6.28638">
        <ele>315.4</ele>
        <time>2013-11-20T15:40:59Z</time>
      </trkpt>
      <trkpt lat="43.53045" lon="6.28634">
        <ele>315.8</ele>
        <time>2013-11-20T15:41:06Z</time>
      </trkpt>
      <trkpt lat="43.53044" lon="6.28634">
        <ele>316.2</ele>
        <time>2013-11-20T15:41:07Z</time>
      </trkpt>
      <trkpt lat="43.53029" lon="6.28628">
        <ele>315.2</ele>
        <time>2013-11-20T15:41:20Z</time>
      </trkpt>
      <trkpt lat="43.53021" lon="6.28624">
        <ele>316.1</ele>
        <time>2013-11-20T15:41:27Z</time>
      </trkpt>
      <trkpt lat="43.53014" lon="6.28618">
        <ele>316.3</ele>
        <time>2013-11-20T15:41:35Z</time>
      </trkpt>
      <trkpt lat="43.53006" lon="6.28612">
        <ele>316.3</ele>
        <time>2013-11-20T15:41:43Z</time>
      </trkpt>
      <trkpt lat="43.52997" lon="6.2861">
        <ele>315.8</ele>
        <time>2013-11-20T15:41:51Z</time>
      </trkpt>
      <trkpt lat="43.52989" lon="6.28609">
        <ele>314.1</ele>
        <time>2013-11-20T15:42:00Z</time>
      </trkpt>
      <trkpt lat="43.52981" lon="6.28609">
        <ele>314.3</ele>
        <time>2013-11-20T15:42:07Z</time>
      </trkpt>
      <trkpt lat="43.5298" lon="6.28609">
        <ele>314.5</ele>
        <time>2013-11-20T15:42:08Z</time>
      </trkpt>
      <trkpt lat="43.52964" lon="6.28608">
        <ele>314.1</ele>
        <time>2013-11-20T15:42:24Z</time>
      </trkpt>
      <trkpt lat="43.52956" lon="6.28608">
        <ele>313.6</ele>
        <time>2013-11-20T15:42:32Z</time>
      </trkpt>
      <trkpt lat="43.52948" lon="6.28607">
        <ele>312.2</ele>
        <time>2013-11-20T15:42:39Z</time>
      </trkpt>
      <trkpt lat="43.52939" lon="6.28608">
        <ele>313.3</ele>
        <time>2013-11-20T15:42:45Z</time>
      </trkpt>
      <trkpt lat="43.52932" lon="6.2861">
        <ele>312.1</ele>
        <time>2013-11-20T15:42:51Z</time>
      </trkpt>
      <trkpt lat="43.52923" lon="6.28612">
        <ele>312.2</ele>
        <time>2013-11-20T15:42:57Z</time>
      </trkpt>
      <trkpt lat="43.52915" lon="6.28614">
        <ele>311.7</ele>
        <time>2013-11-20T15:43:03Z</time>
      </trkpt>
      <trkpt lat="43.52907" lon="6.28615">
        <ele>310.7</ele>
        <time>2013-11-20T15:43:10Z</time>
      </trkpt>
      <trkpt lat="43.52906" lon="6.28615">
        <ele>310.8</ele>
        <time>2013-11-20T15:43:11Z</time>
      </trkpt>
      <trkpt lat="43.52889" lon="6.28613">
        <ele>310.2</ele>
        <time>2013-11-20T15:43:24Z</time>
      </trkpt>
      <trkpt lat="43.52881" lon="6.28612">
        <ele>309.8</ele>
        <time>2013-11-20T15:43:29Z</time>
      </trkpt>
      <trkpt lat="43.52873" lon="6.28607">
        <ele>307.7</ele>
        <time>2013-11-20T15:43:38Z</time>
      </trkpt>
      <trkpt lat="43.52865" lon="6.28607">
        <ele>307.6</ele>
        <time>2013-11-20T15:43:43Z</time>
      </trkpt>
      <trkpt lat="43.52857" lon="6.28604">
        <ele>307.8</ele>
        <time>2013-11-20T15:43:49Z</time>
      </trkpt>
      <trkpt lat="43.5285" lon="6.28599">
        <ele>306.6</ele>
        <time>2013-11-20T15:43:56Z</time>
      </trkpt>
      <trkpt lat="43.52842" lon="6.28595">
        <ele>306.3</ele>
        <time>2013-11-20T15:44:03Z</time>
      </trkpt>
      <trkpt lat="43.52833" lon="6.28593">
        <ele>305.1</ele>
        <time>2013-11-20T15:44:09Z</time>
      </trkpt>
      <trkpt lat="43.52826" lon="6.28587">
        <ele>305.7</ele>
        <time>2013-11-20T15:44:14Z</time>
      </trkpt>
      <trkpt lat="43.52825" lon="6.28586">
        <ele>305.7</ele>
        <time>2013-11-20T15:44:15Z</time>
      </trkpt>
      <trkpt lat="43.52812" lon="6.28575">
        <ele>304.7</ele>
        <time>2013-11-20T15:44:27Z</time>
      </trkpt>
      <trkpt lat="43.52806" lon="6.28567">
        <ele>304.6</ele>
        <time>2013-11-20T15:44:33Z</time>
      </trkpt>
      <trkpt lat="43.52801" lon="6.28558">
        <ele>304.3</ele>
        <time>2013-11-20T15:44:39Z</time>
      </trkpt>
      <trkpt lat="43.52795" lon="6.28551">
        <ele>303.6</ele>
        <time>2013-11-20T15:44:45Z</time>
      </trkpt>
      <trkpt lat="43.52788" lon="6.28543">
        <ele>304.3</ele>
        <time>2013-11-20T15:44:52Z</time>
      </trkpt>
      <trkpt lat="43.52782" lon="6.28535">
        <ele>303.6</ele>
        <time>2013-11-20T15:44:59Z</time>
      </trkpt>
      <trkpt lat="43.52776" lon="6.28527">
        <ele>302.6</ele>
        <time>2013-11-20T15:45:05Z</time>
      </trkpt>
      <trkpt lat="43.5277" lon="6.28521">
        <ele>303.7</ele>
        <time>2013-11-20T15:45:11Z</time>
      </trkpt>
      <trkpt lat="43.52761" lon="6.28516">
        <ele>303.4</ele>
        <time>2013-11-20T15:45:18Z</time>
      </trkpt>
      <trkpt lat="43.52761" lon="6.28515">
        <ele>303.4</ele>
        <time>2013-11-20T15:45:19Z</time>
      </trkpt>
      <trkpt lat="43.52749" lon="6.28501">
        <ele>303.2</ele>
        <time>2013-11-20T15:45:31Z</time>
      </trkpt>
      <trkpt lat="43.52742" lon="6.28494">
        <ele>302.4</ele>
        <time>2013-11-20T15:45:38Z</time>
      </trkpt>
      <trkpt lat="43.52735" lon="6.28488">
        <ele>302.2</ele>
        <time>2013-11-20T15:45:45Z</time>
      </trkpt>
      <trkpt lat="43.52729" lon="6.28481">
        <ele>301.8</ele>
        <time>2013-11-20T15:45:52Z</time>
      </trkpt>
      <trkpt lat="43.52721" lon="6.28475">
        <ele>301.6</ele>
        <time>2013-11-20T15:45:59Z</time>
      </trkpt>
      <trkpt lat="43.52714" lon="6.28469">
        <ele>301.8</ele>
        <time>2013-11-20T15:46:07Z</time>
      </trkpt>
      <trkpt lat="43.52706" lon="6.28466">
        <ele>301.1</ele>
        <time>2013-11-20T15:46:13Z</time>
      </trkpt>
      <trkpt lat="43.52698" lon="6.28463">
        <ele>301.4</ele>
        <time>2013-11-20T15:46:19Z</time>
      </trkpt>
      <trkpt lat="43.52697" lon="6.28462">
        <ele>301.1</ele>
        <time>2013-11-20T15:46:20Z</time>
      </trkpt>
      <trkpt lat="43.52685" lon="6.28453">
        <ele>300.7</ele>
        <time>2013-11-20T15:46:29Z</time>
      </trkpt>
      <trkpt lat="43.52678" lon="6.28448">
        <ele>300.3</ele>
        <time>2013-11-20T15:46:35Z</time>
      </trkpt>
      <trkpt lat="43.5267" lon="6.28442">
        <ele>299.5</ele>
        <time>2013-11-20T15:46:42Z</time>
      </trkpt>
      <trkpt lat="43.52663" lon="6.28437">
        <ele>299.2</ele>
        <time>2013-11-20T15:46:48Z</time>
      </trkpt>
      <trkpt lat="43.52656" lon="6.28431">
        <ele>298.8</ele>
        <time>2013-11-20T15:46:55Z</time>
      </trkpt>
      <trkpt lat="43.52649" lon="6.28425">
        <ele>299.5</ele>
        <time>2013-11-20T15:47:02Z</time>
      </trkpt>
      <trkpt lat="43.52642" lon="6.28419">
        <ele>298.4</ele>
        <time>2013-11-20T15:47:08Z</time>
      </trkpt>
      <trkpt lat="43.52637" lon="6.28411">
        <ele>298.2</ele>
        <time>2013-11-20T15:47:14Z</time>
      </trkpt>
      <trkpt lat="43.5263" lon="6.28402">
        <ele>297.9</ele>
        <time>2013-11-20T15:47:20Z</time>
      </trkpt>
      <trkpt lat="43.52629" lon="6.28401">
        <ele>297.5</ele>
        <time>2013-11-20T15:47:21Z</time>
      </trkpt>
      <trkpt lat="43.52618" lon="6.28389">
        <ele>297.8</ele>
        <time>2013-11-20T15:47:32Z</time>
      </trkpt>
      <trkpt lat="43.5261" lon="6.28384">
        <ele>297.9</ele>
        <time>2013-11-20T15:47:40Z</time>
      </trkpt>
      <trkpt lat="43.52602" lon="6.2838">
        <ele>298.5</ele>
        <time>2013-11-20T15:47:46Z</time>
      </trkpt>
      <trkpt lat="43.52595" lon="6.28377">
        <ele>297.8</ele>
        <time>2013-11-20T15:47:53Z</time>
      </trkpt>
      <trkpt lat="43.52587" lon="6.28377">
        <ele>298.4</ele>
        <time>2013-11-20T15:48:01Z</time>
      </trkpt>
      <trkpt lat="43.52579" lon="6.2838">
        <ele>297.7</ele>
        <time>2013-11-20T15:48:09Z</time>
      </trkpt>
      <trkpt lat="43.5257" lon="6.2838">
        <ele>297.8</ele>
        <time>2013-11-20T15:48:15Z</time>
      </trkpt>
      <trkpt lat="43.52562" lon="6.28376">
        <ele>297.8</ele>
        <time>2013-11-20T15:48:21Z</time>
      </trkpt>
      <trkpt lat="43.52561" lon="6.28375">
        <ele>298</ele>
        <time>2013-11-20T15:48:22Z</time>
      </trkpt>
      <trkpt lat="43.5255" lon="6.2836">
        <ele>296.5</ele>
        <time>2013-11-20T15:48:35Z</time>
      </trkpt>
      <trkpt lat="43.52547" lon="6.2835">
        <ele>296.3</ele>
        <time>2013-11-20T15:48:42Z</time>
      </trkpt>
      <trkpt lat="43.52546" lon="6.28339">
        <ele>296.9</ele>
        <time>2013-11-20T15:48:49Z</time>
      </trkpt>
      <trkpt lat="43.52546" lon="6.28327">
        <ele>296.5</ele>
        <time>2013-11-20T15:48:56Z</time>
      </trkpt>
      <trkpt lat="43.52547" lon="6.28315">
        <ele>296.2</ele>
        <time>2013-11-20T15:49:03Z</time>
      </trkpt>
      <trkpt lat="43.52549" lon="6.28304">
        <ele>296.2</ele>
        <time>2013-11-20T15:49:09Z</time>
      </trkpt>
      <trkpt lat="43.5255" lon="6.28292">
        <ele>295.4</ele>
        <time>2013-11-20T15:49:16Z</time>
      </trkpt>
      <trkpt lat="43.5255" lon="6.28282">
        <ele>295.8</ele>
        <time>2013-11-20T15:49:22Z</time>
      </trkpt>
      <trkpt lat="43.5255" lon="6.2828">
        <ele>295.4</ele>
        <time>2013-11-20T15:49:23Z</time>
      </trkpt>
      <trkpt lat="43.52542" lon="6.28262">
        <ele>295.6</ele>
        <time>2013-11-20T15:49:38Z</time>
      </trkpt>
      <trkpt lat="43.52534" lon="6.28257">
        <ele>296.3</ele>
        <time>2013-11-20T15:49:53Z</time>
      </trkpt>
    </trkseg>
  </trk>
</gpx>